<- Previous Day | Today | Next Day ->

All Data for 13 August 2019

 

Time A - D Temp A - D Dew Point A - D Humidity A - D Pressure A - D Wind A - D Wind Dir Gust A - D Rain Rate A - D Rain Total
00:00 12.5 9.7 83 1019.9 3.1 SW 3.8 0.0 0.0
00:01 12.5 9.7 83 1019.9 2.2 SW 3.8 0.0 0.0
00:03 12.5 9.7 83 1020.0 3.1 W 3.8 0.0 0.0
00:04 12.5 9.7 83 1020.0 3.1 W 3.8 0.0 0.0
00:05 12.5 9.7 83 1020.0 3.1 W 3.8 0.0 0.0
00:06 12.5 9.7 83 1020.0 3.1 W 3.8 0.0 0.0
00:07 12.5 9.7 83 1020.0 3.1 W 3.8 0.0 0.0
00:08 12.5 9.7 83 1020.0 3.1 SW 3.8 0.0 0.0
00:09 12.5 9.7 83 1020.0 2.2 SW 3.1 0.0 0.0
00:10 12.5 9.7 83 1020.0 1.6 W 3.1 0.0 0.0
00:11 12.5 9.7 83 1020.0 1.6 W 3.1 0.0 0.0
00:13 12.5 9.7 83 1020.0 2.2 W 3.1 0.0 0.0
00:14 12.5 9.7 83 1020.0 2.2 W 3.1 0.0 0.0
00:15 12.5 9.7 83 1020.0 2.2 W 3.1 0.0 0.0
00:16 12.5 9.7 83 1020.0 2.2 W 3.1 0.0 0.0
00:17 12.5 9.7 83 1019.9 2.2 SW 3.1 0.0 0.0
00:18 12.5 9.7 83 1020.0 3.1 SW 3.1 0.0 0.0
00:19 12.5 9.7 83 1020.0 3.1 WSW 3.1 0.0 0.0
00:20 12.5 9.7 83 1020.0 3.1 W 3.1 0.0 0.0
00:21 12.5 9.7 83 1020.0 1.6 SW 3.1 0.0 0.0
00:22 12.5 9.7 83 1019.9 2.2 SW 3.1 0.0 0.0
00:23 12.5 9.7 83 1020.1 2.2 SW 3.1 0.0 0.0
00:24 12.4 9.6 83 1020.0 2.2 SW 3.1 0.0 0.0
00:25 12.4 9.6 83 1020.1 1.6 SW 3.1 0.0 0.0
00:26 12.4 9.6 83 1020.0 1.6 SW 3.1 0.0 0.0
00:27 12.4 9.6 83 1020.0 1.6 SW 3.1 0.0 0.0
00:28 12.4 9.6 83 1020.0 2.2 SW 3.1 0.0 0.0
00:29 12.3 9.5 83 1020.0 2.2 W 3.1 0.0 0.0
00:30 12.4 9.6 83 1020.0 3.1 W 3.1 0.0 0.0
00:32 12.3 9.5 83 1020.0 3.1 W 3.1 0.0 0.0
00:33 12.4 9.6 83 1019.9 3.8 SW 3.8 0.0 0.0
00:34 12.4 9.6 83 1020.0 3.8 W 3.8 0.0 0.0
00:35 12.4 9.6 83 1020.0 3.8 W 3.8 0.0 0.0
00:36 12.4 9.6 83 1020.0 3.1 W 3.8 0.0 0.0
00:37 12.3 9.5 83 1020.0 3.8 W 3.8 0.0 0.0
00:38 12.4 9.6 83 1020.1 3.8 W 3.8 0.0 0.0
00:39 12.4 9.6 83 1020.1 3.1 W 3.8 0.0 0.0
00:40 12.3 9.5 83 1020.0 3.1 N 3.8 0.0 0.0
00:41 12.3 9.5 83 1020.1 3.1 SW 3.8 0.0 0.0
00:42 12.3 9.5 83 1020.1 2.2 SW 3.8 0.0 0.0
00:43 12.3 9.5 83 1020.1 1.6 SW 3.8 0.0 0.0
00:44 12.3 9.5 83 1020.0 1.6 SW 3.8 0.0 0.0
00:45 12.3 9.5 83 1020.0 0.7 SW 3.8 0.0 0.0
00:46 12.3 9.5 83 1020.1 0.0 SW 3.8 0.0 0.0
00:47 12.3 9.5 83 1020.2 1.6 SE 3.8 0.0 0.0
00:48 12.3 9.5 83 1020.0 0.7 SE 3.1 0.0 0.0
00:49 12.2 9.4 83 1020.0 0.7 S 3.1 0.0 0.0
00:51 12.3 9.5 83 1019.9 1.6 S 2.2 0.0 0.0
00:52 12.2 9.4 83 1020.0 1.6 S 1.6 0.0 0.0
00:53 12.2 9.4 83 1020.1 2.2 SE 2.2 0.0 0.0
00:54 12.2 9.4 83 1020.1 2.2 SE 2.2 0.0 0.0
00:55 12.2 9.4 83 1020.1 2.2 SE 2.2 0.0 0.0
00:56 12.2 9.4 83 1020.0 1.6 S 2.2 0.0 0.0
00:57 12.2 9.4 83 1019.9 1.6 S 2.2 0.0 0.0
00:58 12.2 9.4 83 1020.0 2.2 SE 2.2 0.0 0.0
00:59 12.2 9.4 83 1020.0 2.2 S 2.2 0.0 0.0
01:00 12.1 9.3 83 1020.0 1.6 SE 2.2 0.0 0.0
01:01 12.1 9.3 83 1020.0 1.6 SE 2.2 0.0 0.0
01:02 12.1 9.3 83 1020.1 1.6 SE 2.2 0.0 0.0
01:03 12.1 9.3 83 1019.9 1.6 S 2.2 0.0 0.0
01:04 12.1 9.3 83 1019.9 1.6 S 2.2 0.0 0.0
01:05 12.1 9.3 83 1020.0 1.6 S 2.2 0.0 0.0
01:06 12.1 9.3 83 1020.0 1.6 S 2.2 0.0 0.0
01:07 12.1 9.3 83 1020.0 1.6 S 2.2 0.0 0.0
01:08 12.1 9.3 83 1019.9 1.6 S 2.2 0.0 0.0
01:09 12.1 9.3 83 1020.0 1.6 S 2.2 0.0 0.0
01:10 12.1 9.3 83 1020.0 1.6 S 1.6 0.0 0.0
01:11 11.9 9.1 83 1020.1 0.0 S 1.6 0.0 0.0
01:12 11.9 9.1 83 1019.9 0.0 S 1.6 0.0 0.0
01:14 11.9 9.3 84 1020.0 0.0 S 1.6 0.0 0.0
01:15 11.9 9.1 83 1020.0 0.0 S 1.6 0.0 0.0
01:16 11.9 9.3 84 1020.0 0.7 S 1.6 0.0 0.0
01:17 11.9 9.1 83 1019.9 1.6 S 1.6 0.0 0.0
01:18 11.9 9.3 84 1020.0 1.6 S 1.6 0.0 0.0
01:19 11.9 9.1 83 1020.0 1.6 S 1.6 0.0 0.0
01:20 11.9 9.3 84 1020.0 1.6 S 1.6 0.0 0.0
01:21 11.8 9.2 84 1020.1 1.6 S 1.6 0.0 0.0
01:22 11.9 9.3 84 1020.0 0.7 S 1.6 0.0 0.0
01:23 11.8 9.0 83 1020.0 0.7 S 1.6 0.0 0.0
01:24 11.8 9.2 84 1020.0 0.0 S 1.6 0.0 0.0
01:25 11.8 9.2 84 1020.1 0.0 S 1.6 0.0 0.0
01:26 11.8 9.2 84 1020.0 0.0 NW 1.6 0.0 0.0
01:27 11.8 9.2 84 1020.0 1.6 W 1.6 0.0 0.0
01:28 11.8 9.2 84 1020.0 3.1 SW 3.1 0.0 0.1
01:29 11.8 9.2 84 1019.9 3.8 W 3.8 0.8 0.1
01:30 11.9 9.3 84 1020.0 4.5 W 4.5 1.5 0.1
01:31 11.9 9.3 84 1020.1 3.8 NW 4.5 1.5 0.1
01:32 11.9 9.3 84 1020.0 5.4 NW 5.4 1.5 0.1
01:33 12.0 9.4 84 1020.0 6.9 W 6.9 1.5 0.1
01:34 12.1 9.5 84 1019.9 3.8 SW 6.9 0.8 0.1
01:35 12.1 9.5 84 1019.8 5.4 SW 6.9 0.0 0.1
01:37 12.2 9.6 84 1019.9 3.8 W 6.9 0.0 0.1
01:38 12.2 9.8 85 1020.0 3.1 SW 6.9 0.0 0.1
01:39 12.2 9.8 85 1020.0 3.1 SW 6.9 0.0 0.1
01:40 12.3 9.9 85 1019.9 3.1 W 6.9 0.0 0.1
01:41 12.3 9.9 85 1019.9 5.4 SW 6.9 0.0 0.1
01:42 12.4 10.0 85 1020.0 3.1 S 6.9 0.0 0.1
01:43 12.4 10.0 85 1019.9 3.8 SW 6.9 0.0 0.1
01:44 12.4 10.0 85 1020.0 4.5 SW 5.4 0.0 0.1
01:45 12.4 10.0 85 1019.9 3.1 NW 5.4 0.0 0.1
01:46 12.5 10.1 85 1020.0 3.8 SW 5.4 0.0 0.1
01:47 12.5 10.1 85 1020.0 3.1 W 5.4 0.0 0.1
01:48 12.5 10.1 85 1019.9 3.1 W 5.4 0.0 0.1
01:49 12.5 10.1 85 1019.9 2.2 SW 5.4 0.0 0.1
01:50 12.5 10.1 85 1019.9 2.2 SW 5.4 0.0 0.1
01:51 12.6 10.1 85 1019.9 1.6 SW 4.5 0.0 0.1
01:52 12.6 10.1 85 1020.0 3.1 SW 4.5 0.0 0.1
01:53 12.6 10.1 85 1020.0 3.1 SW 4.5 0.0 0.1
01:54 12.6 10.1 85 1019.9 2.2 SW 3.8 0.0 0.1
01:56 12.6 10.1 85 1019.9 3.1 SW 5.4 0.0 0.1
01:57 12.6 10.1 85 1019.9 3.1 SW 5.4 0.0 0.1
01:58 12.6 10.1 85 1019.9 3.1 SW 5.4 0.0 0.1
01:59 12.6 10.1 85 1019.9 3.1 SW 5.4 0.0 0.1
02:00 12.7 10.2 85 1019.8 3.8 S 5.4 0.0 0.1
02:01 12.7 10.2 85 1019.9 3.8 S 5.4 0.0 0.1
02:02 12.7 10.2 85 1020.0 3.8 S 5.4 0.0 0.1
02:03 12.7 10.2 85 1020.0 3.8 S 5.4 0.0 0.1
02:04 12.7 10.2 85 1020.0 3.8 S 5.4 0.0 0.1
02:05 12.7 10.2 85 1020.0 3.8 S 5.4 0.0 0.1
02:06 12.7 10.2 85 1019.8 2.2 S 3.8 0.0 0.1
02:07 12.7 10.4 86 1019.9 1.6 S 3.8 0.0 0.1
02:08 12.7 10.4 86 1020.0 1.6 SE 3.8 0.0 0.1
02:09 12.7 10.4 86 1019.9 1.6 S 3.8 0.0 0.1
02:10 12.7 10.4 86 1019.8 2.2 S 3.8 0.0 0.1
02:11 12.7 10.2 85 1019.8 2.2 SE 3.8 0.0 0.1
02:12 12.7 10.2 85 1019.9 1.6 S 3.8 0.0 0.1
02:13 12.7 10.2 85 1020.0 0.7 SE 3.8 0.0 0.1
02:14 12.7 10.4 86 1019.9 0.7 SE 3.8 0.0 0.1
02:15 12.7 10.4 86 1020.0 0.7 S 2.2 0.0 0.1
02:16 12.7 10.4 86 1019.8 1.6 S 2.2 0.0 0.1
02:17 12.7 10.4 86 1019.9 1.6 S 2.2 0.0 0.1
02:18 12.7 10.4 86 1019.9 1.6 SW 2.2 0.0 0.1
02:20 12.7 10.4 86 1019.7 1.6 SE 2.2 0.0 0.1
02:21 12.7 10.4 86 1019.8 2.2 SE 2.2 0.0 0.1
02:22 12.7 10.4 86 1019.8 2.2 SE 2.2 0.0 0.1
02:23 12.7 10.4 86 1019.9 2.2 SE 2.2 0.0 0.1
02:24 12.7 10.4 86 1019.9 2.2 SE 2.2 0.0 0.1
02:25 12.7 10.4 86 1019.9 2.2 SE 2.2 0.0 0.1
02:26 12.7 10.4 86 1019.8 2.2 SE 2.2 0.0 0.1
02:27 12.7 10.4 86 1019.9 1.6 SE 2.2 0.0 0.1
02:28 12.6 10.3 86 1019.8 0.7 SE 2.2 0.0 0.1
02:29 12.7 10.4 86 1019.8 1.6 SE 2.2 0.0 0.1
02:30 12.7 10.4 86 1019.8 2.2 SE 2.2 0.0 0.1
02:31 12.6 10.3 86 1019.7 1.6 SE 2.2 0.0 0.1
02:32 12.6 10.3 86 1019.8 1.6 SE 2.2 0.0 0.1
02:33 12.6 10.3 86 1019.9 3.1 SE 3.1 0.0 0.1
02:34 12.6 10.3 86 1019.7 2.2 SE 3.1 0.0 0.1
02:35 12.7 10.4 86 1019.7 1.6 SE 3.1 0.0 0.1
02:36 12.6 10.3 86 1019.8 1.6 SE 3.1 0.0 0.1
02:37 12.7 10.4 86 1019.7 1.6 SE 3.1 0.0 0.1
02:39 12.7 10.4 86 1019.7 2.2 SE 3.1 0.0 0.1
02:40 12.6 10.3 86 1019.6 2.2 SE 3.1 0.0 0.1
02:41 12.6 10.3 86 1019.6 2.2 SE 3.1 0.0 0.1
02:42 12.6 10.3 86 1019.6 2.2 SE 3.1 0.0 0.1
02:43 12.6 10.3 86 1019.6 2.2 SW 3.8 0.0 0.1
02:44 12.6 10.3 86 1019.6 1.6 SW 3.8 0.0 0.1
02:45 12.6 10.3 86 1019.6 1.6 SW 3.8 0.0 0.1
02:46 12.6 10.3 86 1019.7 3.8 SW 3.8 0.0 0.1
02:47 12.6 10.3 86 1019.6 1.6 SW 3.8 0.0 0.1
02:48 12.6 10.3 86 1019.7 1.6 SW 3.8 0.0 0.1
02:49 12.6 10.3 86 1019.5 2.2 SW 3.8 0.0 0.1
02:50 12.6 10.3 86 1019.5 2.2 SW 3.8 0.0 0.1
02:51 12.6 10.3 86 1019.6 1.6 SW 3.8 0.0 0.1
02:52 12.6 10.3 86 1019.6 1.6 SW 3.8 0.0 0.1
02:53 12.7 10.4 86 1019.7 1.6 SW 3.8 0.0 0.1
02:54 12.7 10.4 86 1019.6 0.7 S 3.8 0.0 0.1
02:55 12.7 10.4 86 1019.5 2.2 S 3.8 0.0 0.1
02:56 12.7 10.4 86 1019.5 0.0 SW 3.1 0.0 0.1
02:58 12.7 10.4 86 1019.5 1.6 SW 3.1 0.0 0.1
02:59 12.7 10.4 86 1019.5 2.2 SW 3.1 0.0 0.1
03:00 12.7 10.4 86 1019.5 3.1 SW 3.1 0.0 0.1
03:01 12.7 10.4 86 1019.6 3.1 SW 3.1 0.0 0.1
03:02 12.7 10.4 86 1019.6 3.1 SW 3.1 0.0 0.1
03:04 12.7 10.4 86 1019.6 3.1 SW 3.1 0.0 0.1
03:06 12.7 10.4 86 1019.7 3.1 SW 3.1 0.0 0.1
03:07 12.8 10.7 87 1019.7 1.6 SW 3.1 0.0 0.1
03:08 12.8 10.7 87 1019.6 0.7 SW 3.1 0.0 0.1
03:09 12.8 10.7 87 1019.7 0.7 SW 3.1 0.0 0.1
03:10 12.8 10.7 87 1019.5 0.7 SW 3.1 0.0 0.1
03:11 12.8 10.7 87 1019.6 0.0 SW 3.1 0.0 0.1
03:12 12.8 10.7 87 1019.6 0.0 SW 3.1 0.0 0.1
03:13 12.8 10.7 87 1019.5 0.0 SW 3.1 0.0 0.1
03:14 12.8 10.7 87 1019.5 0.0 SW 3.1 0.0 0.1
03:15 12.8 10.7 87 1019.5 0.0 SW 3.1 0.0 0.1
03:16 12.8 10.7 87 1019.5 0.0 SW 3.1 0.0 0.1
03:17 12.8 10.7 87 1019.5 1.6 SW 1.6 0.0 0.1
03:18 12.8 10.7 87 1019.6 2.2 SW 2.2 0.0 0.1
03:19 12.8 10.7 87 1019.5 1.6 SW 2.2 0.0 0.1
03:20 12.8 10.7 87 1019.6 0.7 SW 2.2 0.0 0.1
03:21 12.8 10.7 87 1019.5 2.2 SW 2.2 0.0 0.1
03:22 12.8 10.7 87 1019.5 1.6 SW 2.2 0.0 0.1
03:23 12.8 10.7 87 1019.6 3.1 SW 3.1 0.0 0.1
03:25 12.8 10.7 87 1019.5 1.6 SW 3.1 0.0 0.1
03:26 12.8 10.7 87 1019.5 1.6 SW 3.1 0.0 0.1
03:27 12.8 10.7 87 1019.6 1.6 SW 3.1 0.0 0.1
03:28 12.8 10.7 87 1019.5 3.8 SW 3.8 0.0 0.1
03:29 12.8 10.7 87 1019.5 3.8 SW 3.8 0.0 0.1
03:30 12.8 10.7 87 1019.5 2.2 SW 3.8 0.0 0.1
03:31 12.9 10.8 87 1019.6 3.1 SW 3.8 0.0 0.1
03:32 12.8 10.7 87 1019.6 2.2 SW 3.8 0.0 0.1
03:33 12.8 10.7 87 1019.5 3.8 SW 3.8 0.0 0.1
03:34 12.8 10.7 87 1019.5 3.8 SW 3.8 0.0 0.1
03:35 12.8 10.7 87 1019.5 3.1 SW 3.8 0.0 0.1
03:36 12.8 10.7 87 1019.5 3.8 SW 3.8 0.0 0.1
03:37 12.9 10.8 87 1019.4 2.2 SW 3.8 0.0 0.1
03:38 12.9 10.8 87 1019.5 2.2 WSW 3.8 0.0 0.1
03:39 12.8 10.7 87 1019.5 3.1 SW 3.8 0.0 0.1
03:40 12.9 10.8 87 1019.3 3.1 SW 3.8 0.0 0.1
03:41 12.9 10.8 87 1019.5 3.1 SW 3.8 0.0 0.1
03:43 12.8 10.7 87 1019.4 1.6 SW 3.8 0.0 0.1
03:44 12.9 10.8 87 1019.4 2.2 SW 3.8 0.0 0.1
03:45 12.9 10.8 87 1019.5 2.2 SW 3.8 0.0 0.1
03:46 12.9 10.8 87 1019.4 2.2 SW 3.8 0.0 0.1
03:47 12.9 10.8 87 1019.3 2.2 SW 3.8 0.0 0.1
03:48 12.9 10.8 87 1019.4 2.2 SW 3.8 0.0 0.1
03:49 12.9 10.8 87 1019.4 3.1 SW 3.8 0.0 0.1
03:50 12.9 10.8 87 1019.4 1.6 SW 3.8 0.0 0.1
03:51 12.9 10.8 87 1019.4 2.2 SW 3.8 0.0 0.1
03:52 12.9 10.8 87 1019.4 3.1 SW 3.1 0.0 0.1
03:53 12.9 10.8 87 1019.4 3.1 SW 3.1 0.0 0.1
03:54 12.9 10.8 87 1019.4 3.1 SW 3.1 0.0 0.1
03:55 12.9 10.8 87 1019.5 3.1 SW 3.8 0.0 0.1
03:56 12.9 10.8 87 1019.5 3.1 SW 3.8 0.0 0.1
03:57 12.9 10.8 87 1019.5 3.8 W 3.8 0.0 0.1
03:58 12.9 10.8 87 1019.4 1.6 SW 3.8 0.0 0.1
03:59 12.9 10.8 87 1019.3 1.6 SW 3.8 0.0 0.1
04:00 12.9 10.8 87 1019.3 1.6 SW 3.8 0.0 0.1
04:01 12.9 10.8 87 1019.3 0.0 SW 3.8 0.0 0.1
04:03 12.9 10.8 87 1019.3 0.0 SW 3.8 0.0 0.1
04:04 12.9 10.8 87 1019.3 0.0 SW 3.8 0.0 0.1
04:05 12.9 10.8 87 1019.2 0.0 SW 3.8 0.0 0.1
04:06 12.9 10.8 87 1019.3 0.0 SW 3.8 0.0 0.1
04:07 13.0 10.9 87 1019.3 2.2 SW 3.8 0.0 0.1
04:08 13.0 10.9 87 1019.3 1.6 SW 2.2 0.0 0.1
04:09 13.0 10.9 87 1019.2 0.7 SW 2.2 0.0 0.1
04:10 13.0 10.9 87 1019.3 0.0 SW 2.2 0.0 0.1
04:11 13.0 10.9 87 1019.3 2.2 W 3.1 0.0 0.1
04:12 12.9 10.8 87 1019.4 3.1 W 3.1 0.0 0.1
04:13 13.0 10.9 87 1019.3 2.2 W 3.1 0.0 0.1
04:14 13.0 10.9 87 1019.2 3.8 WSW 3.8 0.8 0.2
04:16 13.0 10.9 87 1019.3 5.4 SW 5.4 0.8 0.2
04:17 13.0 10.9 87 1019.3 3.8 SW 5.4 0.8 0.3
04:18 13.0 10.9 87 1019.4 6.0 S 6.0 1.5 0.4
04:19 13.0 10.9 87 1019.3 6.0 W 6.0 3.0 0.4
04:20 13.0 11.1 88 1019.3 8.3 W 8.3 2.3 0.4
04:21 13.0 11.1 88 1019.4 7.6 W 8.3 3.0 0.5
04:23 13.0 11.1 88 1019.4 5.4 WSW 8.3 4.5 0.7
04:24 13.0 11.1 88 1019.4 5.4 W 8.3 3.8 0.7
04:25 13.0 11.1 88 1019.3 5.4 W 8.3 3.8 0.8
04:26 13.0 11.1 88 1019.3 4.5 SW 8.3 3.0 0.8
04:27 13.0 10.9 87 1019.4 4.5 W 8.3 1.5 0.8
04:28 13.0 11.1 88 1019.4 5.4 W 8.3 1.5 0.8
04:29 13.0 11.1 88 1019.4 4.5 SW 8.3 1.5 0.8
04:30 13.0 11.1 88 1019.3 5.4 W 7.6 0.8 0.8
04:31 13.0 11.1 88 1019.3 4.5 NW 7.6 0.8 0.8
04:32 13.0 11.1 88 1019.2 3.1 NW 5.4 0.8 0.8
04:33 13.0 11.1 88 1019.3 4.5 NW 5.4 0.0 0.8
04:34 13.0 11.1 88 1019.3 3.1 W 5.4 0.0 0.8
04:35 13.0 11.1 88 1019.2 2.2 NW 5.4 0.0 0.8
04:36 13.0 11.1 88 1019.1 3.1 W 5.4 0.0 0.8
04:37 13.0 11.1 88 1019.1 3.8 SW 5.4 0.0 0.8
04:38 13.0 11.1 88 1019.0 3.8 WSW 5.4 0.0 0.8
04:39 13.0 11.1 88 1019.0 3.8 W 5.4 0.0 0.8
04:40 13.0 11.1 88 1019.2 2.2 W 5.4 0.0 0.8
04:42 13.0 11.1 88 1019.1 3.1 S 4.5 0.0 0.8
04:43 13.0 11.1 88 1018.9 2.2 W 4.5 0.8 0.9
04:44 13.0 11.1 88 1019.1 3.1 WSW 3.8 0.8 0.9
04:45 13.0 11.1 88 1019.1 3.1 SW 3.8 0.8 0.9
04:46 13.0 11.1 88 1019.1 2.2 W 3.8 0.8 0.9
04:47 13.0 11.1 88 1019.2 2.2 W 3.8 0.8 0.9
04:48 13.0 11.1 88 1019.1 3.1 SW 3.8 0.0 0.9
04:49 13.0 11.1 88 1019.2 2.2 SW 3.8 0.8 0.9
04:50 13.0 11.1 88 1019.1 1.6 SW 3.8 0.8 0.9
04:51 13.0 11.1 88 1019.1 2.2 W 3.8 0.8 0.9
04:52 13.0 11.1 88 1019.1 2.2 W 3.8 0.8 0.9
04:53 13.0 11.1 88 1019.3 2.2 W 3.8 1.5 1.0
04:54 13.0 11.1 88 1019.1 3.8 W 3.8 0.8 1.0
04:55 13.0 11.1 88 1019.1 3.1 W 3.8 0.8 1.0
04:56 13.0 11.1 88 1019.2 2.2 W 3.8 0.8 1.0
04:57 13.0 11.1 88 1019.2 3.8 WSW 3.8 1.5 1.1
04:58 13.0 11.1 88 1018.9 3.1 NNE 3.8 0.8 1.1
04:59 13.0 11.1 88 1019.0 2.2 W 3.8 0.8 1.1
05:00 13.0 11.1 88 1019.0 3.1 WSW 3.8 0.8 1.1
05:01 13.0 11.1 88 1019.1 3.8 W 3.8 0.8 1.1
05:02 13.0 11.1 88 1019.0 3.8 W 3.8 0.0 1.1
05:04 13.0 11.1 88 1019.1 3.8 W 3.8 0.0 1.1
05:05 13.0 11.1 88 1019.0 3.8 W 3.8 0.0 1.1
05:06 13.0 11.1 88 1019.0 3.8 W 3.8 0.0 1.1
05:07 13.0 11.1 88 1019.0 3.8 W 3.8 0.0 1.1
05:08 13.0 11.1 88 1019.1 3.8 W 3.8 0.0 1.1
05:09 13.0 11.1 88 1019.1 3.8 W 3.8 0.0 1.1
05:10 13.0 11.1 88 1019.1 3.8 W 3.8 0.0 1.1
05:11 13.0 11.1 88 1019.0 3.1 W 3.8 0.8 1.1
05:12 13.0 11.1 88 1019.0 3.1 N 3.8 0.8 1.1
05:13 13.0 11.1 88 1019.0 2.2 W 3.8 0.8 1.1
05:14 13.0 11.1 88 1018.9 3.1 SW 3.8 0.8 1.1
05:15 13.0 11.1 88 1019.1 3.8 W 3.8 0.8 1.1
05:16 12.9 11.0 88 1019.2 3.1 W 3.8 0.0 1.1
05:17 12.9 11.0 88 1019.1 3.1 SW 3.8 0.0 1.1
05:18 13.0 11.1 88 1019.0 3.1 W 3.8 0.0 1.1
05:19 13.0 11.1 88 1019.1 3.1 W 3.8 0.0 1.1
05:20 13.0 11.1 88 1019.0 3.1 W 3.8 0.0 1.1
05:21 12.9 11.0 88 1019.1 2.2 W 3.8 0.0 1.1
05:23 13.0 11.1 88 1019.1 2.2 W 3.8 0.0 1.1
05:24 13.0 11.1 88 1019.1 2.2 SW 3.8 0.0 1.1
05:25 12.9 11.0 88 1019.1 3.1 W 3.8 0.0 1.1
05:26 13.0 11.1 88 1019.1 3.1 W 3.8 0.0 1.1
05:27 12.9 11.0 88 1019.2 3.1 SW 3.8 0.8 1.2
05:28 12.9 11.0 88 1019.1 2.2 W 3.8 0.8 1.2
05:29 12.9 11.0 88 1019.1 3.1 SW 3.8 0.8 1.2
05:30 12.9 11.0 88 1019.1 2.2 SW 3.8 0.8 1.2
05:31 12.9 11.0 88 1019.2 2.2 SW 3.8 0.8 1.2
05:32 12.9 11.0 88 1019.2 2.2 SW 3.8 0.0 1.2
05:33 12.9 11.0 88 1019.3 2.2 W 3.8 0.0 1.2
05:34 12.9 11.0 88 1019.2 2.2 W 3.8 0.0 1.2
05:35 12.9 11.0 88 1019.3 1.6 SW 3.8 0.0 1.2
05:36 12.9 11.0 88 1019.2 1.6 SW 3.8 0.0 1.2
05:37 12.9 11.0 88 1019.2 3.8 W 3.8 0.0 1.2
05:38 12.9 11.0 88 1019.5 3.8 W 3.8 0.0 1.2
05:39 12.9 11.0 88 1019.4 3.8 SW 3.8 0.0 1.2
05:40 12.9 11.0 88 1019.3 2.2 SW 3.8 0.0 1.2
05:41 12.9 11.0 88 1019.5 3.8 SW 3.8 0.0 1.2
05:42 12.9 11.0 88 1019.4 2.2 W 3.8 0.0 1.2
05:43 12.9 11.0 88 1019.4 3.8 SSW 3.8 0.0 1.2
05:44 12.9 11.0 88 1019.4 3.1 SW 3.8 0.0 1.2
05:45 12.9 11.0 88 1019.4 3.1 SW 3.8 0.0 1.2
05:46 12.9 11.0 88 1019.3 2.2 W 3.8 0.0 1.2
05:47 12.9 11.0 88 1019.5 3.1 SW 3.8 0.0 1.2
05:48 12.9 11.0 88 1019.4 3.1 SW 3.8 0.0 1.2
05:49 12.9 11.0 88 1019.4 3.1 W 3.8 0.0 1.2
05:50 12.9 11.0 88 1019.4 3.1 SW 3.8 0.0 1.2
05:51 12.9 11.0 88 1019.4 4.5 SW 4.5 0.0 1.2
05:52 12.9 11.0 88 1019.4 3.8 W 4.5 0.0 1.2
05:53 12.9 11.0 88 1019.5 2.2 W 4.5 0.0 1.2
05:54 12.9 11.0 88 1019.5 2.2 W 4.5 0.0 1.2
05:55 12.9 11.0 88 1019.5 3.8 SW 4.5 0.0 1.2
05:56 12.9 11.0 88 1019.6 3.8 NW 4.5 0.0 1.2
05:57 12.9 11.0 88 1019.5 3.1 SW 4.5 0.0 1.2
05:58 12.9 11.0 88 1019.6 3.1 SW 4.5 0.0 1.2
05:59 12.9 11.0 88 1019.4 3.1 SW 4.5 0.8 1.3
06:00 12.9 11.1 89 1019.5 2.2 SW 4.5 0.8 1.3
06:01 12.9 11.1 89 1019.3 2.2 SW 3.8 0.8 1.3
06:02 12.9 11.1 89 1019.5 2.2 SW 3.8 0.8 1.3
06:03 12.9 11.1 89 1019.4 2.2 SW 3.8 0.8 1.3
06:04 12.9 11.1 89 1019.4 2.2 SW 3.8 0.0 1.3
06:05 12.9 11.1 89 1019.4 2.2 SW 3.8 0.0 1.3
06:06 12.9 11.1 89 1019.6 3.1 SW 3.8 0.0 1.3
06:07 12.9 11.1 89 1019.5 3.1 SW 3.1 0.0 1.3
06:08 12.9 11.1 89 1019.7 3.1 SW 3.1 0.0 1.3
06:09 12.9 11.1 89 1019.5 3.1 SW 3.1 0.0 1.3
06:10 12.9 11.0 88 1019.5 3.1 S 3.1 0.0 1.3
06:11 12.9 11.1 89 1019.5 2.2 S 3.1 0.0 1.3
06:12 12.9 11.1 89 1019.5 3.1 SW 3.1 0.0 1.3
06:13 12.9 11.1 89 1019.6 2.2 SW 3.1 0.0 1.3
06:14 12.9 11.1 89 1019.6 1.6 S 3.1 0.8 1.3
06:15 12.9 11.1 89 1019.8 2.2 S 3.1 0.8 1.3
06:16 12.9 11.1 89 1019.6 1.6 S 3.1 0.8 1.3
06:17 12.9 11.1 89 1019.6 1.6 S 3.1 0.8 1.3
06:18 12.9 11.1 89 1019.5 2.2 SW 3.1 0.8 1.3
06:19 12.8 11.0 89 1019.6 2.2 SW 3.1 0.0 1.3
06:20 12.8 11.0 89 1019.5 2.2 SW 3.1 0.0 1.3
06:21 12.8 11.0 89 1019.5 0.0 SW 3.1 0.0 1.3
06:22 12.8 11.0 89 1019.4 0.0 SW 3.1 0.0 1.3
06:23 12.8 11.0 89 1019.5 2.2 S 2.2 0.0 1.3
06:24 12.8 11.0 89 1019.5 1.6 S 2.2 0.0 1.3
06:25 12.8 11.0 89 1019.6 1.6 S 2.2 0.0 1.3
06:26 12.8 11.0 89 1019.4 3.1 SW 3.1 0.0 1.3
06:27 12.8 11.0 89 1019.5 2.2 SW 3.1 0.0 1.3
06:28 12.8 11.0 89 1019.5 1.6 W 3.1 0.0 1.3
06:29 12.8 11.0 89 1019.6 1.6 W 3.1 0.0 1.4
06:30 12.8 11.0 89 1019.6 1.6 SW 3.1 0.8 1.4
06:31 12.8 11.0 89 1019.5 2.2 SW 3.1 0.8 1.4
06:32 12.8 11.0 89 1019.5 0.7 SW 3.1 0.8 1.4
06:33 12.8 11.0 89 1019.6 1.6 W 3.1 0.8 1.4
06:34 12.8 11.0 89 1019.6 1.6 W 3.1 1.5 1.4
06:35 12.8 11.0 89 1019.5 1.6 W 3.1 0.8 1.4
06:36 12.8 11.0 89 1019.6 0.0 W 3.1 0.8 1.4
06:37 12.8 11.0 89 1019.6 0.7 SW 2.2 0.8 1.4
06:38 12.8 11.0 89 1019.5 1.6 SW 2.2 0.8 1.4
06:39 12.8 11.0 89 1019.5 0.7 SW 2.2 0.0 1.4
06:40 12.8 11.0 89 1019.5 0.0 SW 2.2 0.0 1.4
06:41 12.8 11.0 89 1019.5 0.0 SW 2.2 0.0 1.4
06:42 12.8 11.0 89 1019.5 0.0 SW 1.6 0.0 1.4
06:43 12.8 11.0 89 1019.3 0.0 SW 1.6 0.8 1.5
06:44 12.8 11.0 89 1019.3 0.0 SW 1.6 0.8 1.5
06:45 12.8 11.0 89 1019.4 0.0 SW 1.6 0.8 1.5
06:46 12.8 11.0 89 1019.5 0.0 SW 1.6 0.8 1.5
06:47 12.8 11.0 89 1019.3 0.0 SW 1.6 0.8 1.5
06:48 12.8 11.0 89 1019.5 0.0 SW 0.7 0.0 1.5
06:49 12.8 11.0 89 1019.5 0.0 SW 0.0 0.0 1.5
06:50 12.8 11.0 89 1019.5 0.0 SW 0.0 0.0 1.5
06:51 12.8 11.0 89 1019.4 0.0 SW 0.0 0.0 1.5
06:52 12.8 11.0 89 1019.6 0.0 SW 0.0 0.0 1.5
06:53 12.8 11.0 89 1019.5 0.0 SW 0.0 0.0 1.5
06:54 12.8 11.0 89 1019.4 0.0 SW 0.0 0.0 1.5
06:55 12.8 11.0 89 1019.5 0.0 SW 0.0 0.0 1.5
06:56 12.8 11.0 89 1019.5 0.0 SW 0.0 0.0 1.5
06:57 12.8 11.0 89 1019.5 0.0 SW 0.0 0.0 1.5
06:58 12.8 11.0 89 1019.5 0.0 SW 0.0 0.0 1.5
06:59 12.8 11.0 89 1019.6 0.0 SW 0.0 0.0 1.5
07:00 12.8 11.0 89 1019.5 0.0 SW 0.0 0.0 1.5
07:01 12.8 11.0 89 1019.5 0.0 SW 0.0 0.0 1.5
07:02 12.8 11.0 89 1019.4 0.0 SW 0.0 0.0 1.5
07:03 12.8 11.0 89 1019.5 1.6 SW 1.6 0.0 1.5
07:04 12.8 11.0 89 1019.6 0.7 SW 1.6 0.0 1.5
07:05 12.8 11.0 89 1019.6 0.7 SW 1.6 0.0 1.5
07:06 12.8 11.0 89 1019.5 0.0 SW 1.6 0.0 1.5
07:07 12.8 11.0 89 1019.5 1.6 SW 1.6 0.0 1.5
07:08 12.8 11.0 89 1019.5 0.7 SW 1.6 0.0 1.5
07:09 12.8 11.0 89 1019.5 1.6 S 1.6 0.0 1.5
07:10 12.8 11.0 89 1019.6 2.2 S 2.2 0.0 1.5
07:11 12.8 11.0 89 1019.6 3.1 S 3.1 0.0 1.5
07:12 12.8 11.0 89 1019.6 2.2 SW 3.1 0.0 1.5
07:13 12.8 11.0 89 1019.5 1.6 S 3.1 0.0 1.5
07:14 12.8 11.0 89 1019.6 3.1 SW 3.1 0.0 1.5
07:15 12.8 11.0 89 1019.5 2.2 SW 3.1 0.0 1.5
07:16 12.8 11.0 89 1019.6 3.1 SW 3.1 0.0 1.5
07:17 12.8 11.0 89 1019.6 2.2 S 3.1 0.0 1.5
07:18 12.8 11.0 89 1019.5 2.2 SW 3.1 0.0 1.5
07:19 12.8 11.0 89 1019.8 2.2 SW 3.1 0.0 1.5
07:20 12.9 11.1 89 1019.6 2.2 S 3.1 0.0 1.5
07:21 12.9 11.1 89 1019.7 1.6 W 3.1 0.0 1.5
07:22 12.9 11.1 89 1019.5 2.2 W 3.1 0.0 1.5
07:23 12.9 11.1 89 1019.7 3.1 W 3.1 0.0 1.5
07:24 12.9 11.1 89 1019.7 3.1 SW 3.1 0.0 1.5
07:25 12.9 11.1 89 1019.7 2.2 W 3.1 0.0 1.5
07:26 12.9 11.1 89 1019.7 2.2 W 3.1 0.0 1.5
07:27 12.9 11.1 89 1019.6 2.2 W 3.1 0.0 1.5
07:28 12.9 11.3 90 1019.8 2.2 SW 3.1 0.0 1.5
07:29 12.9 11.3 90 1019.6 3.1 SW 3.1 0.0 1.5
07:30 12.9 11.1 89 1019.7 2.2 S 3.1 0.0 1.5
07:31 12.9 11.1 89 1019.8 2.2 W 3.1 0.0 1.5
07:32 13.0 11.2 89 1019.6 3.1 SW 3.1 0.0 1.5
07:33 13.0 11.2 89 1019.6 3.1 SW 3.1 0.0 1.5
07:34 12.9 11.3 90 1019.7 2.2 SE 3.1 0.0 1.5
07:35 13.0 11.4 90 1019.7 2.2 W 3.1 0.0 1.5
07:36 13.0 11.4 90 1019.7 2.2 SW 3.1 0.0 1.5
07:37 13.0 11.4 90 1019.8 2.2 SW 3.1 0.0 1.5
07:38 13.0 11.4 90 1019.8 3.1 SW 3.1 0.0 1.5
07:39 13.0 11.4 90 1019.8 3.1 SW 3.1 0.0 1.5
07:40 13.0 11.4 90 1019.8 2.2 W 3.1 0.0 1.5
07:41 13.0 11.4 90 1019.8 3.1 SW 3.1 0.0 1.5
07:42 13.0 11.4 90 1019.8 3.8 SW 3.8 0.0 1.5
07:43 13.0 11.4 90 1019.9 3.1 SW 3.8 0.0 1.5
07:44 13.1 11.5 90 1019.9 3.1 SW 3.8 0.0 1.5
07:45 13.1 11.5 90 1019.8 2.2 SW 3.8 0.0 1.5
07:46 13.1 11.5 90 1019.9 3.8 SW 3.8 0.0 1.5
07:47 13.1 11.5 90 1019.8 3.1 SW 3.8 0.0 1.5
07:48 13.1 11.5 90 1019.8 3.1 SW 3.8 0.0 1.5
07:49 13.1 11.5 90 1019.8 2.2 SW 3.8 0.0 1.5
07:50 13.1 11.5 90 1019.9 2.2 SW 3.8 0.0 1.5
07:51 13.1 11.5 90 1019.7 3.1 SW 3.8 0.0 1.5
07:52 13.1 11.5 90 1019.9 2.2 S 3.8 0.0 1.5
07:53 13.2 11.6 90 1019.8 2.2 SW 3.8 0.0 1.5
07:54 13.2 11.6 90 1019.7 3.1 SW 3.8 0.0 1.5
07:55 13.2 11.6 90 1019.9 3.1 S 3.8 0.0 1.5
07:56 13.2 11.6 90 1019.9 2.2 S 3.8 0.0 1.5
07:57 13.2 11.6 90 1020.0 2.2 SW 3.8 0.0 1.5
07:58 13.2 11.6 90 1019.9 3.8 SW 3.8 0.0 1.5
07:59 13.2 11.6 90 1019.9 3.1 SW 3.8 0.0 1.5
08:00 13.2 11.6 90 1020.0 3.1 S 3.8 0.0 1.5
08:01 13.3 11.7 90 1020.0 3.1 SW 3.8 0.0 1.5
08:02 13.3 11.7 90 1020.0 1.6 SW 3.8 0.0 1.5
08:03 13.3 11.7 90 1020.0 1.6 SW 3.8 0.0 1.5
08:04 13.3 11.7 90 1020.0 2.2 SW 3.8 0.0 1.5
08:05 13.3 11.7 90 1020.0 2.2 W 3.8 0.0 1.5
08:06 13.3 11.7 90 1020.1 3.1 SW 3.8 0.0 1.5
08:07 13.3 11.7 90 1020.0 3.1 W 3.8 0.0 1.5
08:08 13.3 11.7 90 1019.9 3.8 SW 3.8 0.0 1.5
08:09 13.4 11.8 90 1020.1 3.8 SW 3.8 0.0 1.5
08:10 13.4 11.8 90 1019.9 2.2 SW 3.8 0.0 1.5
08:11 13.4 11.8 90 1019.9 3.8 SW 4.5 0.0 1.5
08:12 13.4 11.8 90 1020.0 3.1 S 4.5 0.0 1.5
08:13 13.4 11.8 90 1019.9 2.2 S 4.5 0.0 1.5
08:14 13.4 11.8 90 1020.0 3.1 SE 4.5 0.0 1.5
08:15 13.4 11.8 90 1020.0 3.1 S 4.5 0.0 1.5
08:16 13.4 12.0 91 1019.9 3.8 SW 4.5 0.0 1.5
08:17 13.4 12.0 91 1019.9 3.8 SW 4.5 0.0 1.5
08:18 13.5 12.1 91 1019.9 3.1 SW 4.5 0.0 1.5
08:19 13.5 12.1 91 1020.0 3.1 SW 4.5 0.0 1.5
08:20 13.5 12.1 91 1020.0 3.8 S 4.5 0.0 1.5
08:21 13.5 12.1 91 1020.0 3.8 S 3.8 0.0 1.5
08:22 13.5 12.1 91 1020.1 3.8 SW 3.8 0.0 1.5
08:23 13.5 12.1 91 1020.1 3.1 WSW 3.8 0.0 1.5
08:24 13.6 12.2 91 1020.0 3.1 SW 3.8 0.0 1.5
08:25 13.6 12.2 91 1020.1 2.2 S 3.8 0.0 1.5
08:26 13.6 12.2 91 1020.1 3.1 W 3.8 0.0 1.5
08:27 13.6 12.2 91 1020.1 3.8 SW 4.5 0.0 1.5
08:28 13.6 12.2 91 1020.0 3.1 SW 4.5 0.0 1.5
08:29 13.6 12.2 91 1020.1 3.8 WSW 4.5 0.0 1.5
08:30 13.6 12.2 91 1020.0 3.1 SW 4.5 0.0 1.5
08:31 13.6 12.2 91 1020.1 2.2 W 4.5 0.0 1.5
08:32 13.6 12.2 91 1020.0 3.1 SW 4.5 0.0 1.5
08:33 13.6 12.2 91 1020.1 3.1 W 4.5 0.0 1.5
08:34 13.6 12.2 91 1020.0 3.8 W 4.5 0.0 1.5
08:35 13.6 12.2 91 1020.1 4.5 SW 4.5 0.0 1.5
08:36 13.6 12.2 91 1020.1 3.8 W 4.5 0.0 1.5
08:37 13.6 12.2 91 1020.1 3.8 WSW 4.5 0.0 1.5
08:38 13.6 12.2 91 1020.1 3.1 S 4.5 0.0 1.5
08:39 13.7 12.3 91 1020.0 1.6 S 4.5 0.0 1.5
08:40 13.7 12.3 91 1020.0 0.0 SW 4.5 0.0 1.5
08:41 13.7 12.3 91 1020.1 0.0 SW 4.5 0.0 1.5
08:42 13.7 12.3 91 1020.0 0.0 W 4.5 0.0 1.5
08:43 13.7 12.3 91 1020.0 0.0 W 4.5 0.0 1.5
08:44 13.7 12.3 91 1020.0 0.0 W 4.5 0.0 1.6
08:45 13.7 12.3 91 1020.1 0.0 SW 3.8 0.8 1.6
08:46 13.7 12.3 91 1020.2 0.0 S 3.8 0.8 1.6
08:47 13.7 12.3 91 1020.1 0.0 S 3.8 0.8 1.6
08:48 13.7 12.3 91 1020.0 0.0 SW 3.1 0.8 1.6
08:49 13.7 12.3 91 1020.0 0.0 SW 1.6 0.8 1.6
08:50 13.7 12.3 91 1020.0 0.0 S 0.0 0.0 1.6
08:51 13.7 12.3 91 1020.0 0.0 SW 0.0 0.0 1.6
08:52 13.7 12.3 91 1020.0 0.0 SW 0.0 0.0 1.6
08:53 13.8 12.4 91 1020.1 3.1 SW 3.8 0.0 1.6
08:55 13.8 12.4 91 1020.0 1.6 SW 3.8 0.0 1.6
08:56 13.8 12.4 91 1020.0 3.1 WSW 3.8 0.0 1.6
08:57 13.8 12.4 91 1020.2 3.1 S 3.8 0.0 1.6
08:58 13.8 12.4 91 1020.0 3.1 WSW 3.8 0.0 1.6
08:59 13.9 12.5 91 1020.0 3.8 SW 3.8 0.0 1.6
09:00 13.9 12.5 91 1020.0 2.2 SW 3.8 0.0 1.6
09:01 13.9 12.5 91 1020.0 3.8 SW 3.8 0.0 1.6
09:02 13.9 12.5 91 1020.0 3.1 WSW 3.8 0.0 1.6
09:03 13.9 12.5 91 1020.0 3.1 WSW 3.8 0.0 1.6
09:04 13.9 12.5 91 1020.1 3.1 WSW 3.8 0.0 1.6
09:05 13.9 12.5 91 1020.1 2.2 SW 3.8 0.0 1.6
09:06 13.9 12.5 91 1020.2 3.1 SW 3.8 0.0 1.6
09:07 13.9 12.5 91 1020.2 3.1 SW 3.8 0.0 1.6
09:08 13.9 12.5 91 1020.2 3.8 SW 3.8 0.8 1.6
09:09 13.9 12.5 91 1020.1 3.1 W 3.8 0.8 1.7
09:10 13.9 12.5 91 1020.2 2.2 W 3.8 1.5 1.7
09:11 13.9 12.5 91 1020.2 3.1 S 3.8 1.5 1.7
09:13 14.0 12.6 91 1020.1 6.0 SW 6.0 0.8 1.7
09:14 13.9 12.5 91 1020.3 4.5 WSW 6.0 0.8 1.7
09:15 14.0 12.6 91 1020.1 4.5 SW 6.0 0.0 1.7
09:16 14.0 12.6 91 1020.2 3.8 SW 6.0 0.0 1.7
09:17 13.9 12.5 91 1020.2 3.1 SW 6.0 0.0 1.7
09:18 14.0 12.6 91 1020.1 3.8 SW 6.0 0.0 1.7
09:19 14.0 12.6 91 1020.1 3.8 SW 6.0 0.0 1.7
09:20 14.0 12.6 91 1020.1 3.8 SW 6.0 0.0 1.7
09:21 14.0 12.6 91 1020.2 3.1 W 6.0 0.0 1.7
09:22 14.0 12.6 91 1020.2 5.4 SW 6.0 0.0 1.7
09:23 14.0 12.6 91 1020.0 5.4 SW 6.0 0.8 1.8
09:24 14.0 12.6 91 1020.2 2.2 SW 5.4 0.8 1.8
09:25 14.0 12.6 91 1020.1 3.8 SW 5.4 0.8 1.8
09:26 14.0 12.6 91 1020.1 5.4 SW 5.4 0.8 1.8
09:27 14.0 12.6 91 1020.2 6.0 SSW 6.0 0.8 1.8
09:28 14.0 12.6 91 1020.2 5.4 S 6.0 0.0 1.8
09:29 14.0 12.6 91 1020.3 5.4 S 6.0 0.0 1.8
09:30 14.0 12.6 91 1020.1 5.4 WNW 6.0 0.0 1.8
09:31 14.0 12.6 91 1020.1 3.8 SW 6.0 0.0 1.8
09:32 14.1 12.7 91 1020.2 3.1 W 6.0 0.0 1.8
09:33 14.1 12.7 91 1020.1 3.8 WSW 6.0 0.0 1.8
09:34 14.1 12.7 91 1020.2 3.8 SW 6.0 0.0 1.8
09:35 14.1 12.7 91 1020.2 4.5 S 6.0 0.0 1.8
09:36 14.1 12.7 91 1020.2 4.5 S 6.0 0.0 1.8
09:37 14.0 12.6 91 1020.2 3.8 SW 6.0 0.0 1.8
09:38 14.1 12.7 91 1020.0 4.5 W 5.4 0.0 1.8
09:39 14.1 12.7 91 1020.1 3.8 SW 5.4 0.0 1.8
09:40 14.1 12.7 91 1020.0 4.5 SW 5.4 0.0 1.8
09:41 14.1 12.7 91 1020.0 3.1 SW 5.4 0.0 1.8
09:42 14.1 12.7 91 1020.0 3.1 SW 5.4 0.0 1.8
09:44 14.1 12.7 91 1020.0 4.5 S 5.4 0.0 1.8
09:45 14.1 12.7 91 1020.0 3.8 W 4.5 0.0 1.8
09:46 14.1 12.7 91 1020.0 4.5 WSW 4.5 0.0 1.8
09:47 14.1 12.7 91 1020.1 3.8 SW 4.5 0.8 1.8
09:48 14.1 12.7 91 1020.0 3.1 SW 4.5 0.8 1.8
09:49 14.2 12.8 91 1020.1 3.8 S 4.5 0.8 1.8
09:50 14.2 12.8 91 1020.2 3.1 SW 4.5 0.8 1.8
09:51 14.2 12.8 91 1020.0 4.5 W 4.5 0.8 1.8
09:52 14.2 12.8 91 1020.0 3.8 W 4.5 0.0 1.8
09:53 14.2 12.9 92 1020.0 3.1 SW 4.5 0.0 1.8
09:54 14.3 13.0 92 1020.0 3.1 SW 4.5 0.0 1.8
09:55 14.3 12.9 91 1020.1 3.1 SW 4.5 0.0 1.8
09:56 14.3 13.0 92 1020.0 6.0 SW 6.0 0.0 1.8
09:57 14.4 13.1 92 1020.0 5.4 SW 6.0 0.0 1.8
09:59 14.4 13.1 92 1020.1 3.1 SW 6.9 0.0 1.8
10:00 14.4 13.1 92 1020.1 2.2 SW 6.9 0.0 1.8
10:02 14.5 13.2 92 1020.2 5.4 SW 6.9 0.0 1.8
10:03 14.4 13.1 92 1020.2 6.0 SW 6.9 0.0 1.8
10:04 14.5 13.1 91 1020.2 5.4 SSW 6.9 0.0 1.8
10:05 14.5 13.2 92 1020.2 6.0 SW 6.9 0.0 1.8
10:06 14.5 13.2 92 1020.0 5.4 SW 6.9 0.0 1.8
10:07 14.5 13.1 91 1020.0 5.4 S 6.9 0.0 1.8
10:08 14.5 13.1 91 1020.0 5.4 S 6.9 0.0 1.8
10:09 14.5 13.1 91 1020.1 5.4 S 6.0 0.0 1.8
10:10 14.5 13.1 91 1020.1 5.4 SW 6.0 0.0 1.8
10:11 14.5 13.1 91 1020.1 5.4 SW 6.0 0.0 1.8
10:12 14.5 13.1 91 1020.1 3.8 SW 6.0 0.0 1.8
10:13 14.6 13.2 91 1020.1 6.0 SW 6.0 0.0 1.8
10:14 14.6 13.3 92 1020.2 4.5 W 6.9 0.0 1.8
10:15 14.6 13.2 91 1020.0 5.4 NW 6.9 0.0 1.8
10:16 14.7 13.3 91 1020.1 5.4 SW 6.9 0.0 1.8
10:17 14.7 13.3 91 1020.1 3.8 W 6.9 0.0 1.8
10:18 14.7 13.3 91 1020.0 3.8 W 6.9 0.0 1.8
10:19 14.7 13.3 91 1020.1 3.1 W 6.9 0.0 1.8
10:20 14.7 13.3 91 1020.0 3.1 SW 6.9 0.0 1.8
10:21 14.7 13.3 91 1020.0 3.8 WNW 6.9 0.0 1.8
10:22 14.7 13.3 91 1020.1 4.5 W 6.9 0.0 1.8
10:23 14.7 13.3 91 1020.1 4.5 W 6.9 0.0 1.8
10:24 14.7 13.3 91 1020.0 5.4 W 5.4 0.0 1.8
10:25 14.8 13.4 91 1020.0 5.4 SW 5.4 0.0 1.8
10:26 14.8 13.4 91 1020.0 4.5 W 5.4 0.0 1.8
10:27 14.8 13.4 91 1019.9 4.5 SW 5.4 0.0 1.8
10:28 14.7 13.3 91 1020.0 3.8 SW 5.4 0.0 1.8
10:29 14.8 13.4 91 1020.1 5.4 SW 5.4 0.0 1.8
10:30 14.8 13.4 91 1020.0 6.0 SW 6.0 0.0 1.8
10:31 14.8 13.4 91 1020.1 5.4 S 6.0 0.0 1.8
10:32 14.9 13.3 90 1020.1 4.5 S 6.0 0.0 1.8
10:33 14.9 13.5 91 1020.0 5.4 S 6.0 0.0 1.8
10:34 15.0 13.4 90 1020.1 4.5 SW 6.0 0.0 1.8
10:35 14.9 13.3 90 1020.0 4.5 SW 6.0 0.0 1.8
10:36 15.0 13.4 90 1020.1 3.8 W 6.0 0.0 1.8
10:37 15.0 13.4 90 1020.0 3.1 SW 6.0 0.0 1.8
10:38 15.0 13.4 90 1020.0 3.8 SW 6.0 0.0 1.8
10:39 15.1 13.5 90 1020.0 4.5 W 6.0 0.0 1.8
10:40 15.1 13.5 90 1020.1 3.8 SW 6.0 0.0 1.8
10:41 15.1 13.5 90 1020.1 4.5 SW 5.4 0.0 1.8
10:42 15.2 13.6 90 1020.0 5.4 W 5.4 0.0 1.8
10:43 15.2 13.6 90 1020.0 3.8 W 5.4 0.0 1.8
10:44 15.2 13.6 90 1020.1 3.8 SW 5.4 0.0 1.8
10:45 15.2 13.6 90 1020.1 5.4 SW 5.4 0.0 1.8
10:46 15.3 13.7 90 1020.0 3.1 S 5.4 0.0 1.8
10:48 15.4 13.8 90 1020.2 6.0 SW 6.0 0.0 1.8
10:49 15.4 13.8 90 1020.2 5.4 S 6.0 0.0 1.8
10:50 15.5 13.9 90 1020.0 2.2 SE 6.0 0.0 1.8
10:51 15.5 13.9 90 1020.0 5.4 S 6.0 0.0 1.8
10:52 15.6 14.0 90 1020.1 6.0 SW 6.0 0.0 1.8
10:53 15.6 14.0 90 1020.1 6.0 S 6.0 0.0 1.8
10:54 15.7 14.1 90 1020.1 3.8 SW 6.0 0.0 1.8
10:55 15.7 14.1 90 1020.1 3.8 SW 6.0 0.0 1.8
10:56 15.7 14.1 90 1020.1 3.1 S 6.0 0.0 1.8
10:57 15.7 14.1 90 1020.0 3.8 S 6.0 0.0 1.8
10:58 15.7 14.1 90 1020.0 4.5 SW 6.0 0.0 1.8
10:59 15.7 14.1 90 1020.1 3.8 S 6.0 0.0 1.8
11:00 15.7 14.1 90 1020.0 3.1 SW 6.0 0.0 1.8
11:01 15.7 14.1 90 1020.0 3.1 SW 6.0 0.0 1.8
11:02 15.8 14.2 90 1020.0 4.5 S 6.0 0.0 1.8
11:03 15.8 14.2 90 1020.0 4.5 SW 6.0 0.0 1.8
11:04 15.8 14.2 90 1020.2 3.8 S 4.5 0.0 1.8
11:05 15.9 14.3 90 1020.0 5.4 SSW 5.4 0.0 1.8
11:07 16.0 14.4 90 1020.0 4.5 SW 5.4 0.0 1.8
11:08 16.0 14.4 90 1020.0 3.8 SW 5.4 0.0 1.8
11:09 16.0 14.4 90 1020.1 4.5 SW 5.4 0.0 1.8
11:10 16.0 14.2 89 1020.2 5.4 S 5.4 0.0 1.8
11:11 16.0 14.2 89 1020.2 4.5 S 5.4 0.0 1.8
11:12 16.0 14.2 89 1020.2 4.5 S 5.4 0.0 1.8
11:13 16.0 14.2 89 1020.1 6.9 SW 6.9 0.0 1.8
11:14 16.0 14.2 89 1020.0 7.6 SW 7.6 0.0 1.8
11:15 16.1 14.3 89 1020.1 6.0 S 7.6 0.0 1.8
11:16 16.1 14.3 89 1020.2 5.4 S 7.6 0.0 1.8
11:17 16.1 14.3 89 1020.2 5.4 S 7.6 0.0 1.8
11:18 16.2 14.4 89 1020.0 6.0 SW 7.6 0.0 1.8
11:19 16.3 14.5 89 1020.1 6.9 SW 7.6 0.0 1.8
11:21 16.4 14.6 89 1020.0 6.0 SW 7.6 0.0 1.8
11:22 16.5 14.7 89 1020.0 6.0 WNW 7.6 0.0 1.8
11:23 16.5 14.7 89 1020.0 6.9 SW 7.6 0.0 1.8
11:24 16.5 14.7 89 1020.0 6.0 S 6.9 0.0 1.8
11:25 16.5 14.7 89 1020.1 7.6 S 7.6 0.0 1.8
11:26 16.6 14.8 89 1020.3 5.4 S 7.6 0.0 1.8
11:27 16.6 14.8 89 1020.3 5.4 S 7.6 0.0 1.8
11:28 16.6 14.8 89 1020.0 6.0 S 7.6 0.0 1.8
11:29 16.6 14.8 89 1020.0 7.6 SE 7.6 0.0 1.8
11:30 16.6 14.8 89 1020.1 6.9 SW 7.6 0.0 1.8
11:31 16.6 14.8 89 1020.0 7.6 S 7.6 0.0 1.8
11:32 16.6 14.8 89 1020.0 6.0 S 7.6 0.0 1.8
11:33 16.6 14.8 89 1020.2 8.3 S 8.3 0.0 1.8
11:34 16.6 14.6 88 1020.2 5.4 SW 8.3 0.0 1.8
11:35 16.6 14.6 88 1020.2 6.9 SW 8.3 0.0 1.8
11:37 16.6 14.6 88 1020.1 9.8 S 9.8 0.0 1.8
11:38 16.6 14.6 88 1020.3 9.2 SW 9.8 0.0 1.8
11:39 16.6 14.6 88 1020.2 7.6 S 9.8 0.0 1.8
11:40 16.5 14.5 88 1020.2 7.6 SW 9.8 0.0 1.8
11:41 16.5 14.3 87 1020.2 6.9 SW 9.8 0.0 1.8
11:42 16.5 14.3 87 1020.4 8.3 SW 9.8 0.0 1.8
11:43 16.4 14.2 87 1020.2 6.9 SW 9.8 0.0 1.8
11:44 16.4 14.2 87 1020.2 7.6 SW 9.8 0.0 1.8
11:45 16.4 14.2 87 1020.3 6.9 SW 9.8 0.0 1.8
11:46 16.3 14.1 87 1020.2 7.6 SSW 9.8 0.0 1.8
11:47 16.3 14.1 87 1020.3 8.3 SE 9.8 0.0 1.8
11:48 16.3 14.1 87 1020.1 9.8 SE 9.8 0.0 1.8
11:49 16.2 13.9 86 1020.1 8.3 E 10.7 0.0 1.8
11:50 16.2 13.9 86 1020.1 4.5 W 10.7 0.0 1.8
11:52 16.2 13.9 86 1020.1 9.2 SW 10.7 0.0 1.8
11:53 16.2 13.9 86 1020.2 8.3 SW 10.7 0.0 1.8
11:54 16.2 13.9 86 1020.0 7.6 SW 10.7 0.0 1.8
11:55 16.2 13.9 86 1020.1 6.9 SW 10.7 0.0 1.8
11:56 16.2 13.9 86 1020.0 6.0 SSW 10.7 0.0 1.8
11:57 16.2 13.9 86 1020.0 5.4 SW 10.7 0.0 1.8
11:58 16.2 13.9 86 1020.2 6.0 W 10.7 0.0 1.8
11:59 16.2 13.9 86 1020.1 6.0 SW 9.2 0.0 1.8
12:00 16.2 13.9 86 1020.3 5.4 WNW 9.2 0.0 1.8
12:01 16.3 14.0 86 1020.1 8.3 SW 9.2 0.0 1.8
12:02 16.3 14.0 86 1020.3 9.2 E 9.2 0.0 1.8
12:03 16.3 14.0 86 1020.3 9.2 E 9.2 0.0 1.8
12:04 16.3 14.0 86 1020.2 7.6 SW 9.2 0.0 1.8
12:05 16.3 14.0 86 1020.2 6.0 S 9.2 0.0 1.8
12:06 16.3 14.0 86 1020.2 6.9 S 9.2 0.0 1.8
12:07 16.3 14.0 86 1020.1 7.6 S 9.2 0.0 1.8
12:08 16.3 14.0 86 1020.2 8.3 SW 9.2 0.0 1.8
12:09 16.3 13.8 85 1020.4 6.9 S 9.2 0.0 1.8
12:10 16.3 13.8 85 1020.1 9.2 SW 9.2 0.0 1.8
12:11 16.3 13.8 85 1020.1 7.6 SW 9.2 0.0 1.8
12:13 16.3 13.8 85 1020.2 6.9 S 9.2 0.0 1.8
12:14 16.3 13.8 85 1020.1 8.3 SW 9.2 0.0 1.8
12:15 16.3 13.8 85 1020.1 8.3 W 9.2 0.0 1.8
12:16 16.3 13.8 85 1020.1 7.6 S 9.2 0.0 1.8
12:17 16.3 13.8 85 1020.1 7.6 SW 9.2 0.0 1.8
12:18 16.3 13.8 85 1020.1 5.4 WSW 9.2 0.0 1.8
12:19 16.3 13.8 85 1020.0 5.4 S 9.2 0.0 1.8
12:20 16.3 13.8 85 1020.1 5.4 SW 9.2 0.0 1.8
12:21 16.3 13.8 85 1020.1 9.2 SW 9.2 0.0 1.8
12:22 16.3 13.8 85 1020.1 7.6 SW 9.2 0.0 1.8
12:23 16.3 13.8 85 1020.3 9.8 S 9.8 0.0 1.8
12:24 16.3 13.8 85 1020.3 8.3 SE 9.8 0.0 1.8
12:25 16.3 13.8 85 1020.3 6.9 S 9.8 0.0 1.8
12:26 16.3 13.6 84 1020.3 7.6 S 9.8 0.0 1.8
12:27 16.2 13.5 84 1020.2 8.3 S 9.8 0.0 1.8
12:29 16.1 13.4 84 1020.2 6.9 S 9.8 0.0 1.8
12:30 16.1 13.4 84 1020.0 9.8 SW 9.8 0.0 1.8
12:31 16.1 13.4 84 1020.1 8.3 S 9.8 0.0 1.8
12:32 16.0 13.3 84 1020.1 6.9 S 9.8 0.0 1.8
12:33 16.0 13.3 84 1020.2 6.9 S 9.8 0.0 1.8
12:34 16.0 13.3 84 1020.0 8.3 SW 9.8 0.0 1.8
12:35 16.0 13.3 84 1020.0 8.3 SW 9.8 0.0 1.8
12:36 16.0 13.3 84 1020.0 8.3 S 9.8 0.0 1.8
12:37 16.0 13.3 84 1020.0 6.9 SW 9.8 0.0 1.8
12:38 16.0 13.3 84 1020.0 7.6 S 9.8 0.0 1.8
12:39 16.0 13.3 84 1020.0 9.2 S 9.8 0.0 1.8
12:40 16.0 13.3 84 1020.0 8.3 SW 9.8 0.0 1.8
12:41 16.0 13.3 84 1020.0 7.6 S 9.2 0.0 1.8
12:42 16.0 13.3 84 1020.2 6.9 S 9.2 0.0 1.8
12:44 16.0 13.3 84 1020.0 6.9 E 9.2 0.0 1.8
12:45 16.0 13.3 84 1020.1 6.0 S 9.2 0.0 1.8
12:46 16.1 13.4 84 1020.0 7.6 SW 9.2 0.0 1.8
12:47 16.1 13.4 84 1020.1 8.3 S 9.2 0.0 1.8
12:48 16.1 13.4 84 1020.1 7.6 SW 9.2 0.0 1.8
12:49 16.1 13.4 84 1020.0 5.4 SW 8.3 0.0 1.8
12:50 16.2 13.5 84 1020.0 6.0 SW 8.3 0.0 1.8
12:51 16.2 13.5 84 1020.1 6.0 SW 8.3 0.0 1.8
12:52 16.2 13.5 84 1019.9 7.6 SSW 8.3 0.0 1.8
12:53 16.3 13.6 84 1020.0 5.4 SW 8.3 0.0 1.8
12:54 16.3 13.6 84 1019.9 6.9 SW 8.3 0.0 1.8
12:55 16.3 13.6 84 1019.9 7.6 S 8.3 0.0 1.8
12:56 16.4 13.7 84 1019.9 5.4 S 8.3 0.0 1.8
12:57 16.4 13.7 84 1019.9 5.4 SW 8.3 0.0 1.8
12:58 16.4 13.7 84 1019.7 4.5 S 7.6 0.0 1.8
12:59 16.5 13.8 84 1020.0 9.2 S 9.2 0.0 1.8
13:01 16.5 13.8 84 1019.8 7.6 S 9.8 0.0 1.8
13:02 16.5 13.8 84 1019.9 7.6 S 9.8 0.0 1.8
13:03 16.5 13.8 84 1019.7 6.9 SSW 9.8 0.0 1.8
13:04 16.5 13.8 84 1019.7 6.9 SSW 9.8 0.0 1.8
13:05 16.5 13.8 84 1019.9 9.2 SW 9.8 0.0 1.8
13:06 16.5 13.8 84 1019.8 6.9 S 9.8 0.0 1.8
13:07 16.6 13.9 84 1019.8 7.6 SW 9.8 0.0 1.8
13:08 16.6 13.9 84 1019.8 9.2 S 9.8 0.0 1.8
13:09 16.6 13.9 84 1019.8 6.0 SW 9.8 0.0 1.8
13:10 16.7 14.0 84 1019.8 5.4 W 9.8 0.0 1.8
13:11 16.7 14.0 84 1019.8 8.3 SW 9.2 0.0 1.8
13:12 16.8 14.1 84 1019.8 6.0 SW 9.2 0.0 1.8
13:13 16.9 14.2 84 1019.7 9.2 W 9.2 0.0 1.8
13:14 17.0 14.3 84 1019.9 9.2 SW 9.2 0.0 1.8
13:15 17.0 14.3 84 1019.7 6.9 NW 9.2 0.0 1.8
13:16 17.1 14.4 84 1019.8 8.3 S 9.2 0.0 1.8
13:17 17.1 14.4 84 1019.8 5.4 SW 9.2 0.0 1.8
13:18 17.1 14.2 83 1019.8 9.2 SW 9.2 0.0 1.8
13:19 17.2 14.3 83 1019.9 8.3 SW 9.2 0.0 1.8
13:21 17.2 14.3 83 1019.9 8.3 S 9.2 0.0 1.8
13:22 17.2 14.3 83 1019.9 6.9 S 9.2 0.0 1.8
13:23 17.2 14.3 83 1019.8 7.6 SE 9.2 0.0 1.8
13:24 17.2 14.3 83 1019.8 9.2 SW 9.2 0.0 1.8
13:25 17.2 14.3 83 1019.8 6.9 SW 9.2 0.0 1.8
13:26 17.1 14.0 82 1020.0 9.8 SW 9.8 0.0 1.8
13:27 17.1 14.0 82 1020.0 9.8 SW 9.8 0.0 1.8
13:28 17.1 14.0 82 1019.9 9.2 NW 9.8 0.0 1.8
13:29 17.1 14.0 82 1019.9 9.2 NW 9.8 0.0 1.8
13:30 17.1 14.0 82 1020.0 7.6 NW 9.8 0.0 1.8
13:31 17.1 14.0 82 1020.0 7.6 NW 9.8 0.0 1.8
13:32 17.1 14.0 82 1020.0 6.9 SW 9.8 0.0 1.8
13:33 17.1 14.0 82 1019.9 10.7 S 10.7 0.0 1.8
13:34 17.1 14.0 82 1019.9 9.2 SW 10.7 0.0 1.8
13:35 17.1 13.8 81 1019.9 7.6 S 10.7 0.0 1.8
13:36 17.0 13.7 81 1020.0 9.2 S 10.7 0.0 1.8
13:38 17.0 13.7 81 1020.0 9.8 SW 12.1 0.0 1.8
13:41 17.1 13.8 81 1020.0 7.6 SW 12.1 0.0 1.8
13:42 17.1 13.8 81 1020.0 13.0 S 13.0 0.0 1.8
13:43 17.1 13.8 81 1019.9 9.8 S 13.0 0.0 1.8
13:44 17.1 13.8 81 1019.9 9.8 S 13.0 0.0 1.8
13:45 17.1 13.8 81 1019.8 10.7 SW 13.0 0.0 1.8
13:46 17.1 13.8 81 1019.9 9.2 SW 13.0 0.0 1.8
13:47 17.1 13.8 81 1019.9 12.1 SE 13.0 0.0 1.8
13:48 17.0 13.7 81 1019.9 10.7 SSE 13.0 0.0 1.8
13:49 17.0 13.7 81 1019.9 10.7 SSE 13.0 0.0 1.8
13:50 17.0 13.7 81 1019.8 9.2 S 13.0 0.0 1.8
13:51 16.9 13.4 80 1019.9 7.6 S 13.0 0.0 1.8
13:52 16.9 13.4 80 1019.8 10.7 SW 13.0 0.0 1.8
13:53 16.9 13.4 80 1019.8 8.3 S 12.1 0.0 1.8
13:54 16.8 13.3 80 1019.8 8.3 SW 12.1 0.0 1.8
13:56 16.8 13.3 80 1019.7 6.9 S 12.1 0.0 1.8
13:57 16.8 13.3 80 1019.7 6.9 SW 10.7 0.0 1.8
13:58 16.8 13.5 81 1019.8 6.0 SSW 10.7 0.0 1.8
13:59 16.8 13.5 81 1019.6 6.0 WSW 10.7 0.0 1.8
14:00 16.8 13.5 81 1019.6 7.6 S 10.7 0.0 1.8
14:01 16.9 13.6 81 1019.5 8.3 S 10.7 0.0 1.8
14:02 16.9 13.6 81 1019.7 9.2 S 10.7 0.0 1.8
14:03 16.9 13.6 81 1019.6 7.6 SW 9.2 0.0 1.8
14:04 16.9 13.6 81 1019.6 6.0 S 9.2 0.0 1.8
14:05 16.9 13.6 81 1019.6 6.0 S 9.2 0.0 1.8
14:06 17.0 13.7 81 1019.6 7.6 S 9.2 0.0 1.8
14:07 17.0 13.5 80 1019.6 10.7 S 10.7 0.0 1.8
14:08 17.0 13.7 81 1019.5 7.6 S 10.7 0.0 1.8
14:09 17.0 13.7 81 1019.5 7.6 S 10.7 0.0 1.8
14:10 17.0 13.7 81 1019.6 10.7 SSE 10.7 0.0 1.8
14:11 17.1 13.6 80 1019.6 9.8 SW 10.7 0.0 1.8
14:12 17.1 13.6 80 1019.6 9.8 SW 10.7 0.0 1.8
14:14 17.1 13.6 80 1019.7 9.2 WSW 10.7 0.0 1.8
14:15 17.1 13.6 80 1019.7 9.8 S 10.7 0.0 1.8
14:16 17.1 13.6 80 1019.6 7.6 S 10.7 0.0 1.8
14:17 17.1 13.6 80 1019.7 11.4 SW 11.4 0.0 1.8
14:18 17.2 13.7 80 1019.7 12.1 SW 12.1 0.0 1.8
14:19 17.2 13.7 80 1019.7 12.1 SW 12.1 0.0 1.8
14:20 17.1 13.6 80 1019.7 7.6 SW 12.1 0.0 1.8
14:21 17.1 13.6 80 1019.6 9.2 SW 12.1 0.0 1.8
14:22 17.2 13.7 80 1019.7 9.8 SW 12.1 0.0 1.8
14:23 17.1 13.4 79 1019.6 10.7 SW 12.1 0.0 1.8
14:24 17.1 13.4 79 1019.5 12.1 WSW 12.1 0.0 1.8
14:25 17.1 13.4 79 1019.7 9.8 SW 12.1 0.0 1.8
14:26 17.1 13.4 79 1019.5 8.3 SW 12.1 0.0 1.8
14:27 17.0 13.3 79 1019.5 7.6 SW 12.1 0.0 1.8
14:28 17.1 13.4 79 1019.7 6.9 SW 12.1 0.0 1.8
14:29 17.0 13.3 79 1019.6 8.3 S 12.1 0.0 1.8
14:31 17.0 13.3 79 1019.6 9.8 S 12.1 0.0 1.8
14:32 17.0 13.3 79 1019.6 7.6 SW 12.1 0.0 1.8
14:33 16.9 13.2 79 1019.6 10.7 SW 12.1 0.0 1.8
14:34 16.9 13.0 78 1019.7 9.8 SW 10.7 0.0 1.8
14:35 16.9 13.0 78 1019.6 11.4 SW 11.4 0.0 1.8
14:36 16.8 13.0 78 1019.7 13.6 SW 13.6 0.0 1.8
14:37 16.8 13.0 78 1019.8 11.4 SW 13.6 0.0 1.8
14:38 16.8 13.0 78 1019.7 9.2 S 13.6 0.0 1.8
14:39 16.8 13.0 78 1019.7 9.8 SW 13.6 0.0 1.8
14:40 16.7 12.9 78 1019.7 9.2 S 13.6 0.0 1.8
14:41 16.7 12.9 78 1019.6 6.9 SE 13.6 0.0 1.8
14:42 16.6 12.8 78 1019.7 9.2 S 13.6 0.0 1.8
14:43 16.6 12.8 78 1019.7 9.2 S 13.6 0.0 1.8
14:44 16.6 12.8 78 1019.7 9.2 S 13.6 0.0 1.8
14:45 16.6 12.8 78 1019.8 9.8 S 13.6 0.0 1.8
14:46 16.6 12.8 78 1019.8 8.3 SW 11.4 0.0 1.8
14:48 16.6 12.8 78 1019.7 9.2 S 9.8 0.0 1.8
14:49 16.6 12.8 78 1019.8 9.8 SW 9.8 0.0 1.8
14:50 16.6 12.8 78 1019.7 9.8 SW 9.8 0.0 1.8
14:51 16.5 12.7 78 1019.8 9.8 S 9.8 0.0 1.8
14:52 16.5 12.7 78 1020.0 9.8 S 9.8 0.0 1.8
14:53 16.5 12.7 78 1020.0 9.8 S 9.8 0.0 1.8
14:54 16.5 12.7 78 1019.9 10.7 S 10.7 0.0 1.8
14:55 16.5 12.7 78 1019.8 9.2 S 10.7 0.0 1.8
14:56 16.4 12.6 78 1019.8 8.3 SW 10.7 0.0 1.8
14:57 16.4 12.6 78 1019.8 12.1 S 12.1 0.0 1.8
14:58 16.3 12.5 78 1019.8 9.2 S 12.1 0.0 1.8
14:59 16.3 12.5 78 1019.7 9.2 SW 12.1 0.0 1.8
15:00 16.3 12.5 78 1019.7 9.2 S 12.1 0.0 1.8
15:01 16.3 12.5 78 1019.8 10.7 SW 12.1 0.0 1.8
15:02 16.2 12.4 78 1019.7 9.2 SW 12.1 0.0 1.8
15:03 16.2 12.4 78 1019.7 7.6 S 12.1 0.0 1.8
15:04 16.2 12.4 78 1019.7 7.6 S 12.1 0.0 1.8
15:05 16.2 12.4 78 1019.9 7.6 S 12.1 0.0 1.8
15:06 16.2 12.4 78 1019.7 10.7 S 12.1 0.0 1.8
15:07 16.2 12.4 78 1019.7 9.2 S 11.4 0.0 1.8
15:08 16.3 12.7 79 1019.6 6.9 SW 11.4 0.0 1.8
15:10 16.4 12.8 79 1019.5 7.6 NNW 11.4 0.0 1.8
15:11 16.4 12.8 79 1019.5 10.7 S 11.4 0.0 1.8
15:12 16.5 12.9 79 1019.6 8.3 SW 11.4 0.0 1.8
15:13 16.5 12.9 79 1019.7 8.3 SW 11.4 0.0 1.8
15:14 16.6 13.1 80 1019.7 6.9 SW 11.4 0.0 1.8
15:15 16.7 13.2 80 1019.5 5.4 SW 11.4 0.0 1.8
15:16 16.7 13.2 80 1019.5 10.7 SW 11.4 0.8 1.9
15:17 16.8 13.3 80 1019.6 9.8 WSW 10.7 0.8 1.9
15:18 16.8 13.1 79 1019.5 6.0 S 10.7 0.8 1.9
15:19 16.9 13.4 80 1019.5 11.4 SW 11.4 0.8 1.9
15:20 17.0 13.5 80 1019.6 9.8 SW 11.4 0.8 1.9
15:21 17.1 13.4 79 1019.5 9.2 SW 11.4 0.0 1.9
15:22 17.1 13.4 79 1019.4 7.6 NNE 11.4 0.0 1.9
15:23 17.1 13.4 79 1019.4 6.0 S 11.4 0.0 1.9
15:24 17.2 13.5 79 1019.3 7.6 SW 11.4 0.0 1.9
15:25 17.2 13.5 79 1019.3 8.3 SW 11.4 0.0 1.9
15:26 17.3 13.6 79 1019.2 9.2 NW 11.4 0.0 1.9
15:28 17.4 13.7 79 1019.4 8.3 SW 11.4 0.0 1.9
15:29 17.4 13.7 79 1019.4 7.6 SW 9.8 0.0 1.9
15:30 17.5 13.8 79 1019.4 10.7 SE 10.7 0.0 1.9
15:31 17.5 13.8 79 1019.4 9.8 SW 10.7 0.0 1.9
15:32 17.5 13.8 79 1019.4 12.1 SW 12.1 0.0 1.9
15:33 17.6 13.9 79 1019.2 9.2 SW 12.1 0.0 1.9
15:34 17.6 13.9 79 1019.5 6.9 NW 12.1 0.0 1.9
15:35 17.6 13.9 79 1019.4 8.3 S 12.1 0.0 1.9
15:36 17.7 13.8 78 1019.4 6.9 SW 12.1 0.0 1.9
15:37 17.7 13.8 78 1019.4 9.2 S 12.1 0.0 1.9
15:38 17.7 13.8 78 1019.4 8.3 S 12.1 0.0 1.9
15:39 17.7 13.8 78 1019.4 9.2 SW 12.1 0.0 1.9
15:40 17.8 13.9 78 1019.3 12.1 SW 12.1 0.0 1.9
15:41 17.9 14.0 78 1019.4 10.7 SW 12.1 0.0 1.9
15:42 18.0 14.1 78 1019.5 10.7 SW 12.1 0.0 1.9
15:43 18.0 14.1 78 1019.4 9.8 SW 12.1 0.0 1.9
15:45 18.1 14.2 78 1019.5 9.2 S 12.1 0.0 1.9
15:46 18.2 14.1 77 1019.5 10.7 S 12.1 0.0 1.9
15:47 18.2 14.1 77 1019.5 13.0 S 13.0 0.0 1.9
15:48 18.2 14.1 77 1019.5 11.4 S 13.0 0.0 1.9
15:49 18.2 14.1 77 1019.6 9.8 S 13.0 0.0 1.9
15:50 18.1 13.8 76 1019.8 10.7 S 13.0 0.0 1.9
15:51 18.1 13.8 76 1019.6 11.4 S 13.0 0.0 1.9
15:52 18.0 13.7 76 1019.6 10.7 S 13.0 0.0 1.9
15:53 17.9 13.6 76 1019.6 7.6 SSW 13.0 0.0 1.9
15:54 17.9 13.6 76 1019.6 9.2 SW 13.0 0.0 1.9
15:55 17.8 13.5 76 1019.5 8.3 S 13.0 0.0 1.9
15:56 17.7 13.2 75 1019.5 11.4 S 13.0 0.0 1.9
15:57 17.7 13.4 76 1019.5 10.7 S 13.0 0.0 1.9
15:58 17.6 13.1 75 1019.6 7.6 SW 13.0 0.0 1.9
15:59 17.5 13.2 76 1019.5 8.3 SW 13.0 0.0 1.9
16:00 17.5 13.0 75 1019.5 9.8 S 13.0 0.0 1.9
16:03 17.4 13.1 76 1019.4 6.0 SW 13.0 0.0 1.9
16:04 17.4 13.1 76 1019.4 6.0 SW 13.0 0.0 1.9
16:05 17.4 13.1 76 1019.5 6.0 SW 13.0 0.0 1.9
16:06 17.3 13.0 76 1019.4 9.8 NW 11.4 0.0 1.9
16:07 17.3 13.0 76 1019.5 9.2 SSE 11.4 0.0 1.9
16:08 17.3 13.0 76 1019.5 5.4 S 11.4 0.0 1.9
16:09 17.3 13.0 76 1019.5 9.2 SE 11.4 0.0 1.9
16:10 17.3 13.0 76 1019.5 6.9 SW 11.4 0.0 1.9
16:11 17.3 13.0 76 1019.4 9.8 NW 11.4 0.0 1.9
16:12 17.4 13.1 76 1019.5 9.2 S 10.7 0.0 1.9
16:13 17.4 13.1 76 1019.5 7.6 SW 9.8 0.0 1.9
16:14 17.5 13.2 76 1019.4 7.6 SW 9.8 0.0 1.9
16:15 17.5 13.2 76 1019.5 10.7 SW 10.7 0.0 1.9
16:16 17.5 13.2 76 1019.4 9.2 SW 10.7 0.0 1.9
16:17 17.5 13.2 76 1019.5 8.3 WSW 10.7 0.0 1.9
16:19 17.5 13.2 76 1019.3 12.1 SW 12.1 0.0 1.9
16:20 17.5 13.2 76 1019.4 11.4 SW 12.1 0.0 1.9
16:21 17.5 13.2 76 1019.4 12.1 SSE 12.1 0.0 1.9
16:22 17.4 12.9 75 1019.4 11.4 WSW 12.1 0.0 1.9
16:23 17.4 12.9 75 1019.5 9.8 SW 12.1 0.0 1.9
16:24 17.4 12.9 75 1019.5 9.8 SW 12.1 0.0 1.9
16:25 17.3 12.8 75 1019.5 9.8 SE 12.1 0.0 1.9
16:26 17.3 12.8 75 1019.5 8.3 S 12.1 0.0 1.9
16:27 17.3 12.8 75 1019.4 12.1 SW 12.1 0.0 1.9
16:28 17.2 12.7 75 1019.4 7.6 S 12.1 0.0 1.9
16:29 17.2 12.9 76 1019.5 10.7 W 12.1 0.0 1.9
16:30 17.2 12.9 76 1019.4 9.8 SW 12.1 0.0 1.9
16:31 17.2 12.9 76 1019.5 8.3 SW 12.1 0.0 1.9
16:32 17.2 12.9 76 1019.5 8.3 SW 12.1 0.0 1.9
16:33 17.3 13.0 76 1019.3 9.2 SE 12.1 0.0 1.9
16:34 17.3 13.0 76 1019.4 12.1 S 12.1 0.0 1.9
16:35 17.3 13.0 76 1019.1 9.2 W 12.1 0.0 1.9
16:37 17.2 12.9 76 1019.4 9.8 SW 12.1 0.0 1.9
16:38 17.1 12.8 76 1019.4 9.8 S 12.1 0.0 1.9
16:39 17.1 12.8 76 1019.4 9.2 NW 12.1 0.0 1.9
16:40 17.1 12.6 75 1019.4 9.2 SW 12.1 0.0 1.9
16:41 17.0 12.5 75 1019.4 7.6 S 12.1 0.0 1.9
16:42 17.0 12.5 75 1019.2 6.9 SW 12.1 0.0 1.9
16:43 17.0 12.5 75 1019.4 7.6 SW 12.1 0.0 1.9
16:44 17.0 12.5 75 1019.3 9.8 SW 12.1 0.0 1.9
16:45 17.0 12.5 75 1019.4 8.3 W 11.4 0.0 1.9
16:46 16.9 12.4 75 1019.4 6.9 S 11.4 0.0 1.9
16:47 16.9 12.4 75 1019.4 7.6 S 11.4 0.0 1.9
16:48 16.9 12.7 76 1019.3 9.2 S 11.4 0.0 1.9
16:49 16.9 12.7 76 1019.3 9.2 S 9.8 0.0 1.9
16:50 17.0 12.7 76 1019.3 10.7 SW 10.7 0.0 1.9
16:51 17.0 12.7 76 1019.3 10.7 SSW 10.7 0.0 1.9
16:52 17.0 12.7 76 1019.4 9.2 NW 10.7 0.0 1.9
16:53 17.1 12.8 76 1019.4 13.6 SW 13.6 0.0 1.9
16:55 17.1 12.8 76 1019.2 6.9 SW 13.6 0.0 1.9
16:56 17.1 12.8 76 1019.1 7.6 SW 13.6 0.0 1.9
16:57 17.1 12.8 76 1019.2 5.4 SW 13.6 0.0 1.9
16:58 17.1 13.0 77 1019.3 9.8 S 13.6 0.0 1.9
16:59 17.1 13.0 77 1019.3 9.8 S 13.6 0.0 1.9
17:00 17.1 13.0 77 1019.3 7.6 SW 13.6 0.0 1.9
17:01 17.1 13.0 77 1019.2 9.8 SW 13.6 0.0 1.9
17:02 17.2 13.1 77 1019.1 8.3 SE 13.6 0.0 1.9
17:03 17.2 13.1 77 1019.3 11.4 SW 13.6 0.0 1.9
17:04 17.2 13.1 77 1019.1 10.7 SW 12.1 0.0 1.9
17:05 17.3 13.2 77 1019.4 11.4 S 11.4 0.0 1.9
17:06 17.3 13.2 77 1019.4 9.2 SSW 11.4 0.0 1.9
17:07 17.2 13.1 77 1019.3 9.8 SW 11.4 0.0 1.9
17:08 17.2 12.9 76 1019.2 7.6 SW 11.4 0.0 1.9
17:09 17.2 12.9 76 1019.2 7.6 SW 11.4 0.0 1.9
17:10 17.2 12.9 76 1019.2 6.9 S 11.4 0.0 1.9
17:11 17.1 12.8 76 1019.3 8.3 S 11.4 0.0 1.9
17:12 17.1 12.8 76 1019.3 8.3 SW 11.4 0.0 1.9
17:13 17.1 12.8 76 1019.3 8.3 S 11.4 0.0 1.9
17:14 17.1 12.8 76 1019.1 13.0 N 13.0 0.0 1.9
17:15 17.0 12.7 76 1019.1 7.6 S 13.0 0.0 1.9
17:17 17.0 12.7 76 1019.3 5.4 S 13.0 0.0 1.9
17:18 17.0 12.9 77 1019.3 8.3 S 13.0 0.0 1.9
17:19 17.0 12.9 77 1019.1 10.7 SW 13.0 0.0 1.9
17:20 16.9 12.9 77 1019.2 8.3 SW 13.0 0.0 1.9
17:21 16.9 12.9 77 1019.0 13.0 SW 13.0 0.0 1.9
17:22 16.9 12.9 77 1019.2 9.2 S 13.0 0.0 1.9
17:23 16.9 12.9 77 1019.1 9.8 SW 13.0 0.0 1.9
17:24 16.9 12.9 77 1019.2 6.9 S 13.0 0.0 1.9
17:25 16.9 12.9 77 1019.0 8.3 SW 13.0 0.0 1.9
17:26 16.9 12.9 77 1019.0 7.6 SW 13.0 0.0 1.9
17:27 16.9 12.9 77 1019.0 6.0 SW 13.0 0.0 1.9
17:28 16.9 12.9 77 1019.0 10.7 SW 13.0 0.0 1.9
17:29 16.9 12.9 77 1019.0 10.7 SW 13.0 0.0 1.9
17:30 16.9 12.9 77 1019.2 10.7 S 13.0 0.0 1.9
17:31 16.9 12.9 77 1019.2 12.1 SW 12.1 0.0 1.9
17:32 16.8 12.8 77 1019.0 11.4 S 12.1 0.0 1.9
17:33 16.8 12.8 77 1019.2 9.8 SE 12.1 0.0 1.9
17:35 16.8 12.8 77 1019.1 12.1 S 12.1 0.0 1.9
17:36 16.8 12.8 77 1019.1 10.7 SSW 12.1 0.0 1.9
17:37 16.7 12.7 77 1019.1 11.4 S 12.1 0.0 1.9
17:38 16.7 12.7 77 1019.1 11.4 S 12.1 0.0 1.9
17:39 16.7 12.7 77 1019.0 10.7 SW 12.1 0.0 1.9
17:40 16.7 12.7 77 1019.1 11.4 SW 12.1 0.0 1.9
17:41 16.7 12.7 77 1019.0 9.8 SW 12.1 0.0 1.9
17:45 16.6 12.6 77 1019.1 9.2 SW 12.1 0.0 1.9
17:46 16.6 12.6 77 1019.1 7.6 SW 12.1 0.0 1.9
17:47 16.6 12.6 77 1019.0 7.6 W 12.1 0.0 1.9
17:48 16.6 12.6 77 1018.9 10.7 S 12.1 0.0 1.9
17:49 16.6 12.6 77 1018.9 10.7 S 12.1 0.0 1.9
17:50 16.6 12.8 78 1019.0 12.1 S 12.1 0.0 1.9
17:51 16.6 12.8 78 1019.1 11.4 SW 12.1 0.0 1.9
17:52 16.6 12.8 78 1019.1 9.8 S 13.0 0.0 1.9
17:53 16.6 12.8 78 1019.0 9.2 S 13.0 0.0 1.9
17:54 16.6 12.8 78 1019.0 9.8 SW 13.0 0.0 1.9
17:55 16.6 12.8 78 1019.1 13.0 S 13.0 0.0 1.9
17:56 16.6 12.8 78 1018.9 10.7 SSW 13.0 0.0 1.9
17:57 16.6 12.8 78 1019.0 10.7 S 13.0 0.0 1.9
17:58 16.6 12.8 78 1018.8 9.2 SW 13.0 0.0 1.9
17:59 16.6 12.8 78 1018.9 9.8 SW 13.0 0.0 1.9
18:00 16.6 12.8 78 1019.1 7.6 S 13.0 0.0 1.9
18:02 16.7 12.9 78 1019.0 5.4 S 13.0 0.0 1.9
18:03 16.7 12.9 78 1018.9 8.3 SW 13.0 0.0 1.9
18:04 16.7 12.9 78 1018.9 8.3 S 13.0 0.0 1.9
18:05 16.7 12.9 78 1018.9 8.3 S 12.1 0.0 1.9
18:06 16.7 12.9 78 1019.0 8.3 S 10.7 0.0 1.9
18:07 16.7 12.9 78 1019.0 8.3 S 10.7 0.0 1.9
18:08 16.7 12.9 78 1018.9 8.3 S 10.7 0.0 1.9
18:09 16.7 12.9 78 1018.9 8.3 S 9.8 0.0 1.9
18:10 16.7 12.9 78 1018.9 11.4 SW 11.4 0.0 1.9
18:11 16.7 12.9 78 1019.0 6.9 S 11.4 0.0 1.9
18:12 16.7 12.9 78 1019.0 6.9 SW 11.4 0.0 1.9
18:13 16.7 12.9 78 1018.9 12.1 S 12.1 0.0 1.9
18:14 16.7 12.9 78 1018.9 10.7 S 12.1 0.0 1.9
18:15 16.6 12.8 78 1018.7 6.0 SW 12.1 0.0 1.9
18:16 16.6 12.8 78 1018.7 8.3 SSW 12.1 0.0 1.9
18:17 16.6 12.8 78 1018.8 9.2 SW 12.1 0.0 1.9
18:18 16.6 12.8 78 1018.8 7.6 SW 12.1 0.0 1.9
18:19 16.6 12.8 78 1019.0 7.6 S 12.1 0.0 1.9
18:20 16.6 12.8 78 1018.9 9.8 S 12.1 0.0 1.9
18:21 16.6 12.8 78 1018.8 8.3 S 12.1 0.0 1.9
18:22 16.6 12.8 78 1018.7 7.6 S 12.1 0.0 1.9
18:23 16.6 12.8 78 1018.8 9.8 SE 12.1 0.0 1.9
18:24 16.6 12.8 78 1018.8 11.4 S 11.4 0.0 1.9
18:25 16.5 12.7 78 1018.9 8.3 SSW 11.4 0.0 1.9
18:27 16.5 12.7 78 1018.7 10.7 S 11.4 0.0 1.9
18:28 16.5 12.7 78 1018.8 9.2 SW 11.4 0.0 1.9
18:30 16.5 12.7 78 1018.9 6.0 S 11.4 0.0 1.9
18:32 16.5 12.7 78 1018.8 6.0 SW 11.4 0.0 1.9
18:33 16.5 12.7 78 1018.8 6.9 WSW 11.4 0.0 1.9
18:34 16.5 12.9 79 1018.6 9.2 SW 10.7 0.0 1.9
18:35 16.5 12.7 78 1018.9 9.2 S 10.7 0.0 1.9
18:36 16.5 12.7 78 1018.9 10.7 S 10.7 0.0 1.9
18:37 16.5 12.7 78 1018.8 11.4 SW 11.4 0.0 1.9
18:39 16.5 12.7 78 1018.8 10.7 S 11.4 0.0 1.9
18:40 16.5 12.7 78 1018.7 10.7 S 11.4 0.0 1.9
18:41 16.5 12.7 78 1018.8 7.6 SW 11.4 0.0 1.9
18:42 16.5 12.9 79 1018.8 9.2 S 11.4 0.0 1.9
18:43 16.4 12.6 78 1018.8 6.9 SW 11.4 0.0 1.9
18:44 16.4 12.8 79 1018.9 8.3 SW 11.4 0.0 1.9
18:45 16.4 12.8 79 1018.9 10.7 S 11.4 0.0 1.9
18:46 16.4 12.8 79 1018.8 9.8 WSW 11.4 0.0 1.9
18:47 16.4 12.8 79 1018.8 7.6 S 11.4 0.0 1.9
18:48 16.4 12.8 79 1018.9 8.3 S 10.7 0.0 1.9
18:49 16.4 12.8 79 1019.0 10.7 S 10.7 0.0 1.9
18:50 16.3 12.7 79 1018.8 8.3 S 10.7 0.0 1.9
18:51 16.4 12.8 79 1019.1 9.2 SW 10.7 0.0 1.9
18:52 16.3 12.7 79 1019.0 6.0 SW 10.7 0.0 1.9
18:53 16.3 12.7 79 1018.9 6.9 SW 10.7 0.0 1.9
18:54 16.3 12.7 79 1018.9 5.4 SW 10.7 0.0 1.9
18:56 16.3 12.7 79 1019.0 6.9 W 10.7 0.0 1.9
18:57 16.3 12.7 79 1018.9 6.9 S 10.7 0.0 1.9
18:58 16.3 12.7 79 1019.0 6.9 S 10.7 0.0 1.9
18:59 16.3 12.7 79 1019.0 6.9 S 10.7 0.0 1.9
19:00 16.3 12.7 79 1018.8 8.3 S 9.8 0.0 1.9
19:01 16.3 12.7 79 1018.8 7.6 SW 9.2 0.0 1.9
19:02 16.3 12.7 79 1018.9 5.4 S 8.3 0.0 1.9
19:03 16.3 12.7 79 1018.8 5.4 SW 8.3 0.0 1.9
19:04 16.3 12.7 79 1019.0 8.3 SW 8.3 0.0 1.9
19:05 16.3 12.7 79 1019.0 8.3 SW 8.3 0.0 1.9
19:06 16.3 12.7 79 1018.8 7.6 S 8.3 0.0 1.9
19:07 16.3 12.7 79 1018.8 7.6 S 8.3 0.0 1.9
19:08 16.3 12.7 79 1018.8 7.6 S 8.3 0.0 1.9
19:10 16.3 12.7 79 1018.7 7.6 S 8.3 0.0 1.9
19:11 16.3 12.7 79 1018.7 5.4 S 8.3 0.0 1.9
19:12 16.2 12.6 79 1018.8 6.9 SW 8.3 0.0 1.9
19:13 16.2 12.6 79 1018.5 5.4 S 8.3 0.0 1.9
19:14 16.2 12.6 79 1018.6 7.6 SW 8.3 0.0 1.9
19:15 16.2 12.6 79 1018.6 7.6 SW 7.6 0.0 1.9
19:16 16.2 12.6 79 1018.7 6.9 SW 7.6 0.0 1.9
19:18 16.1 12.5 79 1018.6 9.2 NW 9.8 0.0 1.9
19:19 16.1 12.5 79 1018.5 6.0 SSW 9.8 0.0 1.9
19:20 16.1 12.5 79 1018.6 8.3 SSE 9.8 0.0 1.9
19:21 16.1 12.5 79 1018.4 8.3 S 9.8 0.0 1.9
19:22 16.1 12.5 79 1018.5 6.9 S 9.8 0.0 1.9
19:23 16.0 12.4 79 1018.5 8.3 SSW 9.8 0.0 1.9
19:24 16.0 12.4 79 1018.5 6.9 SW 9.8 0.0 1.9
19:25 16.0 12.4 79 1018.6 8.3 SE 9.8 0.0 1.9
19:26 16.0 12.4 79 1018.5 9.8 SW 9.8 0.0 1.9
19:27 16.0 12.4 79 1018.6 6.9 S 9.8 0.0 1.9
19:28 16.0 12.4 79 1018.6 7.6 S 9.8 0.0 1.9
19:29 16.0 12.4 79 1018.5 7.6 S 9.8 0.0 1.9
19:30 15.9 12.3 79 1018.7 7.6 S 9.8 0.0 1.9
19:31 15.9 12.3 79 1018.6 9.8 S 9.8 0.0 1.9
19:32 15.9 12.3 79 1018.5 7.6 SW 9.8 0.0 1.9
19:33 15.9 12.3 79 1018.4 8.3 S 9.8 0.0 1.9
19:35 15.9 12.3 79 1018.6 5.4 SW 9.8 0.0 1.9
19:36 15.9 12.3 79 1018.5 6.0 S 9.8 0.0 1.9
19:37 15.9 12.3 79 1018.6 5.4 S 9.8 0.0 1.9
19:38 15.9 12.3 79 1018.5 6.0 SW 9.8 0.0 1.9
19:39 15.8 12.2 79 1018.6 7.6 S 9.8 0.0 1.9
19:40 15.9 12.3 79 1018.6 6.0 S 9.8 0.0 1.9
19:41 15.8 12.2 79 1018.5 3.8 S 9.8 0.0 1.9
19:42 15.8 12.2 79 1018.5 6.0 S 8.3 0.0 1.9
19:43 15.9 12.3 79 1018.5 6.9 SW 8.3 0.0 1.9
19:44 15.8 12.2 79 1018.5 6.9 NNE 7.6 0.0 1.9
19:45 15.8 12.4 80 1018.5 8.3 S 8.3 0.0 1.9
19:46 15.8 12.2 79 1018.5 5.4 SE 8.3 0.0 1.9
19:47 15.8 12.2 79 1018.5 4.5 S 8.3 0.0 1.9
19:48 15.8 12.2 79 1018.5 5.4 S 8.3 0.0 1.9
19:49 15.8 12.4 80 1018.4 7.6 WSW 8.3 0.0 1.9
19:50 15.8 12.4 80 1018.5 4.5 S 8.3 0.0 1.9
19:51 15.8 12.4 80 1018.5 6.9 S 8.3 0.0 1.9
19:53 15.7 12.3 80 1018.6 6.0 SE 8.3 0.0 1.9
19:54 15.7 12.3 80 1018.6 5.4 S 8.3 0.0 1.9
19:55 15.7 12.3 80 1018.6 7.6 SW 8.3 0.0 1.9
19:56 15.7 12.3 80 1018.7 6.0 S 7.6 0.0 1.9
19:57 15.7 12.3 80 1018.6 9.2 SW 9.2 0.0 1.9
19:58 15.7 12.3 80 1018.7 7.6 SW 9.2 0.0 1.9
19:59 15.7 12.3 80 1018.6 4.5 S 9.2 0.0 1.9
20:00 15.6 12.2 80 1018.6 5.4 S 9.2 0.0 1.9
20:01 15.6 12.2 80 1018.5 6.0 S 9.2 0.0 1.9
20:02 15.6 12.2 80 1018.6 6.0 S 9.2 0.0 1.9
20:03 15.6 12.2 80 1018.5 6.9 S 9.2 0.0 1.9
20:04 15.6 12.2 80 1018.5 6.0 SSW 9.2 0.0 1.9
20:05 15.6 12.2 80 1018.6 6.0 SW 9.2 0.0 1.9
20:06 15.6 12.2 80 1018.5 6.0 S 9.2 0.0 1.9
20:07 15.6 12.2 80 1018.4 7.6 SW 7.6 0.0 1.9
20:08 15.6 12.2 80 1018.4 6.9 SW 7.6 0.0 1.9
20:10 15.5 12.1 80 1018.3 9.2 S 10.7 0.0 1.9
20:11 15.6 12.4 81 1018.3 8.3 S 10.7 0.0 2.0
20:12 15.6 12.4 81 1018.3 6.0 S 10.7 0.8 2.0
20:13 15.6 12.4 81 1018.3 3.8 S 10.7 0.8 2.0
20:14 15.6 12.4 81 1018.4 7.6 S 10.7 0.8 2.0
20:15 15.6 12.4 81 1018.2 3.8 S 10.7 0.8 2.0
20:16 15.6 12.4 81 1018.4 4.5 S 10.7 0.8 2.0
20:17 15.6 12.4 81 1018.4 6.0 SE 10.7 0.0 2.0
20:18 15.6 12.4 81 1018.5 7.6 S 10.7 0.0 2.0
20:19 15.6 12.4 81 1018.3 3.8 SW 10.7 0.0 2.0
20:20 15.6 12.4 81 1018.4 4.5 S 9.2 0.0 2.0
20:21 15.6 12.4 81 1018.2 4.5 S 8.3 0.0 2.0
20:22 15.6 12.4 81 1018.2 6.0 S 7.6 0.0 2.0
20:23 15.6 12.4 81 1018.1 4.5 SE 7.6 0.0 2.0
20:24 15.6 12.4 81 1018.1 6.9 S 7.6 0.0 2.0
20:25 15.5 12.3 81 1018.1 5.4 S 7.6 0.0 2.0
20:26 15.5 12.3 81 1018.1 5.4 SE 7.6 0.0 2.0
20:28 15.5 12.3 81 1018.1 5.4 SSE 6.9 0.0 2.0
20:29 15.5 12.3 81 1018.1 6.0 S 6.9 0.0 2.0
20:30 15.5 12.3 81 1018.1 6.0 S 6.9 0.0 2.0
20:31 15.5 12.4 82 1018.1 6.0 S 6.9 0.0 2.0
20:32 15.5 12.3 81 1018.1 5.4 S 6.9 0.0 2.0
20:33 15.5 12.4 82 1018.1 5.4 S 6.9 0.0 2.0
20:34 15.5 12.4 82 1018.2 6.9 S 6.9 0.0 2.0
20:35 15.5 12.4 82 1018.1 6.9 S 6.9 0.0 2.0
20:36 15.5 12.4 82 1018.1 6.0 S 6.9 0.0 2.0
20:37 15.5 12.4 82 1018.1 4.5 S 6.9 0.0 2.0
20:38 15.5 12.4 82 1018.1 6.0 SSE 6.9 0.0 2.0
20:39 15.5 12.4 82 1018.0 4.5 S 6.9 0.0 2.0
20:40 15.5 12.4 82 1018.0 5.4 S 6.9 0.0 2.0
20:41 15.5 12.4 82 1018.0 6.9 S 6.9 0.0 2.0
20:42 15.5 12.4 82 1018.1 5.4 S 6.9 0.0 2.0
20:43 15.4 12.3 82 1018.0 4.5 S 6.9 0.0 2.0
20:44 15.4 12.3 82 1018.0 6.0 S 6.9 0.0 2.0
20:46 15.4 12.3 82 1018.1 5.4 SE 6.9 0.0 2.0
20:47 15.4 12.3 82 1018.0 6.0 S 6.9 0.0 2.0
20:48 15.4 12.3 82 1018.1 4.5 S 6.9 0.0 2.0
20:49 15.4 12.3 82 1018.1 6.0 S 6.9 0.0 2.0
20:50 15.4 12.3 82 1018.2 7.6 S 7.6 0.0 2.0
20:51 15.4 12.3 82 1018.1 5.4 SW 7.6 0.0 2.0
20:52 15.4 12.3 82 1018.0 5.4 SSE 7.6 0.0 2.0
20:53 15.4 12.3 82 1017.8 6.9 S 7.6 0.0 2.0
20:54 15.4 12.3 82 1018.0 6.0 SE 7.6 0.0 2.0
20:55 15.4 12.3 82 1018.0 5.4 S 7.6 0.0 2.0
20:56 15.4 12.3 82 1018.0 3.8 S 7.6 0.0 2.0
20:57 15.3 12.3 82 1018.0 6.0 E 7.6 0.0 2.0
20:58 15.3 12.3 82 1018.1 6.0 S 7.6 0.0 2.0
20:59 15.3 12.4 83 1017.9 6.0 SE 7.6 0.0 2.0
21:00 15.3 12.3 82 1017.9 5.4 S 6.9 0.0 2.0
21:01 15.3 12.4 83 1017.9 6.0 SE 6.9 0.0 2.0
21:02 15.3 12.4 83 1018.1 4.5 SE 6.9 0.0 2.0
21:04 15.3 12.4 83 1017.9 5.4 S 8.3 0.0 2.0
21:05 15.3 12.4 83 1018.0 5.4 S 8.3 0.0 2.0
21:06 15.3 12.4 83 1018.0 5.4 S 8.3 0.0 2.0
21:07 15.3 12.4 83 1018.0 6.0 SW 8.3 0.0 2.0
21:08 15.3 12.4 83 1018.0 5.4 S 8.3 0.0 2.0
21:09 15.3 12.4 83 1018.0 6.0 SE 8.3 0.0 2.0
21:10 15.3 12.4 83 1018.1 6.9 S 8.3 0.0 2.0
21:11 15.3 12.4 83 1018.1 4.5 SE 8.3 0.0 2.0
21:12 15.3 12.4 83 1018.1 4.5 S 8.3 0.0 2.0
21:13 15.3 12.4 83 1018.0 6.9 SE 8.3 0.0 2.0
21:14 15.4 12.5 83 1018.2 4.5 S 6.9 0.0 2.0
21:15 15.3 12.4 83 1018.0 8.3 S 8.3 0.0 2.0
21:16 15.4 12.5 83 1018.0 6.9 SE 8.3 0.0 2.0
21:17 15.3 12.4 83 1018.1 4.5 S 8.3 0.0 2.0
21:18 15.3 12.4 83 1018.1 7.6 SE 8.3 0.0 2.0
21:19 15.4 12.5 83 1018.0 6.0 S 8.3 0.0 2.0
21:20 15.3 12.4 83 1018.0 5.4 S 8.3 0.0 2.0
21:21 15.3 12.4 83 1018.0 5.4 S 8.3 0.0 2.0
21:22 15.3 12.4 83 1018.0 6.9 S 8.3 0.0 2.0
21:23 15.3 12.4 83 1018.1 7.6 S 8.3 0.0 2.0
21:24 15.3 12.4 83 1018.0 6.9 S 8.3 0.0 2.0
21:25 15.3 12.4 83 1018.1 6.9 S 8.3 0.0 2.0
21:26 15.3 12.4 83 1017.9 8.3 S 8.3 0.0 2.0
21:28 15.3 12.4 83 1017.9 9.2 SW 9.2 0.0 2.0
21:29 15.4 12.5 83 1018.0 6.0 S 9.2 0.0 2.0
21:30 15.4 12.7 84 1018.0 6.9 S 9.2 0.0 2.0
21:31 15.4 12.7 84 1017.9 3.8 S 9.2 0.0 2.0
21:32 15.4 12.7 84 1018.0 7.6 SE 9.2 0.0 2.0
21:33 15.4 12.7 84 1017.9 7.6 S 9.2 0.0 2.0
21:34 15.4 12.7 84 1017.9 7.6 S 9.2 0.0 2.0
21:35 15.4 12.7 84 1017.8 9.2 SE 9.2 0.0 2.0
21:36 15.4 12.7 84 1017.9 8.3 S 9.2 0.0 2.0
21:37 15.4 12.7 84 1017.9 10.7 S 10.7 0.0 2.0
21:38 15.4 12.7 84 1018.0 6.0 S 10.7 0.0 2.0
21:39 15.4 12.7 84 1017.9 6.0 SE 10.7 0.0 2.0
21:40 15.4 12.7 84 1017.9 7.6 S 10.7 0.0 2.0
21:41 15.4 12.7 84 1017.9 6.0 S 10.7 0.0 2.0
21:42 15.4 12.7 84 1017.9 5.4 S 10.7 0.0 2.0
21:43 15.4 12.7 84 1017.7 4.5 S 10.7 0.0 2.0
21:44 15.4 12.7 84 1017.7 4.5 S 10.7 0.0 2.0
21:45 15.4 12.7 84 1017.8 6.9 S 10.7 0.0 2.0
21:47 15.4 12.7 84 1017.7 4.5 SE 10.7 0.0 2.0
21:48 15.4 12.7 84 1017.7 8.3 S 8.3 0.0 2.0
21:49 15.4 12.7 84 1017.7 6.9 S 8.3 0.0 2.0
21:50 15.4 12.7 84 1017.6 7.6 S 8.3 0.0 2.0
21:51 15.3 12.6 84 1017.8 6.9 S 8.3 0.0 2.0
21:52 15.4 12.7 84 1017.7 6.9 S 8.3 0.0 2.0
21:53 15.4 12.7 84 1017.8 4.5 S 8.3 0.0 2.0
21:54 15.4 12.7 84 1017.8 6.9 S 8.3 0.0 2.0
21:55 15.3 12.6 84 1017.6 6.0 S 8.3 0.0 2.0
21:56 15.3 12.6 84 1017.6 7.6 S 8.3 0.0 2.0
21:57 15.3 12.6 84 1017.7 5.4 SW 8.3 0.0 2.0
21:58 15.3 12.6 84 1017.6 6.0 SE 8.3 0.0 2.0
21:59 15.3 12.6 84 1017.5 6.0 SE 7.6 0.0 2.0
22:00 15.3 12.6 84 1017.7 6.9 SE 7.6 0.0 2.0
22:01 15.3 12.6 84 1017.5 5.4 S 7.6 0.0 2.0
22:02 15.3 12.6 84 1017.7 9.2 S 9.2 0.0 2.0
22:03 15.3 12.8 85 1017.5 6.9 SE 9.2 0.0 2.0
22:04 15.3 12.6 84 1017.5 6.0 S 9.2 0.0 2.0
22:05 15.3 12.6 84 1017.5 6.0 S 9.2 0.0 2.0
22:06 15.3 12.6 84 1017.7 6.0 S 9.2 0.0 2.0
22:07 15.3 12.6 84 1017.6 6.0 S 9.2 0.0 2.0
22:08 15.3 12.6 84 1017.5 6.0 S 9.2 0.0 2.0
22:09 15.3 12.6 84 1017.5 6.0 S 9.2 0.0 2.0
22:10 15.4 12.9 85 1017.6 9.2 S 9.2 0.0 2.0
22:11 15.3 12.8 85 1017.5 7.6 SE 9.2 0.0 2.0
22:12 15.3 12.8 85 1017.5 5.4 S 9.2 0.0 2.0
22:14 15.3 12.8 85 1017.5 6.0 SSW 9.2 0.0 2.0
22:15 15.3 12.8 85 1017.5 6.0 E 9.2 0.0 2.0
22:16 15.3 12.8 85 1017.5 6.9 SE 9.2 0.0 2.0
22:17 15.3 12.8 85 1017.5 6.0 S 9.2 0.0 2.0
22:18 15.3 12.8 85 1017.5 6.0 SE 9.2 0.0 2.0
22:19 15.3 12.8 85 1017.5 6.9 SE 9.2 0.0 2.0
22:20 15.3 12.8 85 1017.6 8.3 S 9.2 0.0 2.0
22:21 15.3 12.8 85 1017.4 7.6 SE 9.2 0.0 2.0
22:22 15.3 12.8 85 1017.6 6.9 S 9.2 0.0 2.0
22:23 15.3 12.8 85 1017.5 9.8 S 9.8 0.0 2.0
22:24 15.3 12.8 85 1017.5 6.0 SE 9.8 0.0 2.0
22:25 15.3 12.8 85 1017.6 8.3 S 9.8 0.0 2.0
22:26 15.3 12.8 85 1017.5 8.3 S 9.8 0.0 2.0
22:27 15.3 12.8 85 1017.6 5.4 SE 9.8 0.0 2.0
22:28 15.3 12.8 85 1017.6 6.9 S 9.8 0.0 2.0
22:29 15.3 12.8 85 1017.5 7.6 S 9.8 0.0 2.0
22:30 15.3 13.0 86 1017.4 6.9 SE 9.8 0.0 2.0
22:31 15.3 13.0 86 1017.5 6.9 SE 9.8 0.0 2.0
22:32 15.3 12.8 85 1017.4 7.6 S 9.8 0.0 2.0
22:34 15.3 13.0 86 1017.4 6.9 S 8.3 0.0 2.0
22:35 15.3 13.0 86 1017.4 7.6 SE 8.3 0.0 2.0
22:36 15.3 13.0 86 1017.2 8.3 SE 9.2 0.0 2.0
22:37 15.3 13.0 86 1017.2 6.0 S 9.2 0.0 2.0
22:38 15.3 13.0 86 1017.3 6.0 S 9.2 0.0 2.0
22:39 15.3 13.0 86 1017.3 7.6 S 9.2 0.0 2.0
22:40 15.3 13.0 86 1017.2 8.3 SE 9.2 0.0 2.0
22:41 15.3 13.0 86 1017.1 9.2 SE 9.2 0.0 2.0
22:42 15.3 13.0 86 1017.3 9.2 S 9.2 0.0 2.0
22:43 15.3 13.0 86 1017.1 9.8 SE 9.8 0.0 2.0
22:44 15.3 13.0 86 1017.1 9.8 SE 9.8 0.0 2.0
22:45 15.3 13.0 86 1017.1 9.2 SE 9.8 0.0 2.0
22:46 15.2 12.9 86 1017.0 9.2 S 9.8 0.0 2.0
22:47 15.2 12.9 86 1017.1 8.3 S 9.8 0.0 2.0
22:48 15.2 12.9 86 1017.2 7.6 S 9.8 0.0 2.0
22:49 15.2 12.9 86 1017.2 7.6 S 9.8 0.0 2.0
22:50 15.2 12.9 86 1017.2 9.2 SE 9.8 0.0 2.0
22:51 15.2 12.9 86 1017.1 9.2 S 9.8 0.0 2.0
22:52 15.2 12.9 86 1017.2 8.3 S 9.8 0.0 2.0
22:53 15.2 12.9 86 1017.2 8.3 S 9.8 0.0 2.0
22:54 15.2 12.9 86 1017.0 8.3 S 9.8 0.0 2.0
22:55 15.2 12.9 86 1017.2 6.9 S 9.2 0.0 2.0
22:56 15.2 12.9 86 1017.3 9.2 S 9.2 0.0 2.0
22:57 15.2 12.9 86 1017.2 9.2 S 9.2 0.0 2.0
22:58 15.2 12.9 86 1017.0 9.8 S 9.8 0.0 2.0
22:59 15.2 12.9 86 1017.0 9.2 S 9.8 0.0 2.0
23:00 15.2 12.9 86 1017.1 7.6 S 9.8 0.0 2.0
23:02 15.2 12.9 86 1017.0 9.2 S 10.7 0.0 2.0
23:03 15.2 12.9 86 1017.2 9.2 SE 10.7 0.0 2.0
23:04 15.2 12.9 86 1017.1 6.9 S 10.7 0.0 2.0
23:05 15.2 12.9 86 1017.0 6.9 S 10.7 0.0 2.0
23:06 15.2 12.9 86 1017.3 6.9 S 10.7 0.0 2.0
23:07 15.2 12.9 86 1017.1 6.9 S 10.7 0.0 2.0
23:08 15.2 12.9 86 1017.2 6.9 S 10.7 0.0 2.0
23:09 15.2 12.9 86 1017.0 6.9 S 10.7 0.0 2.0
23:10 15.1 12.8 86 1017.0 6.9 S 10.7 0.0 2.0
23:11 15.1 12.8 86 1016.9 5.4 SE 10.7 0.0 2.0
23:12 15.1 12.8 86 1017.0 6.9 SE 10.7 0.0 2.0
23:13 15.1 12.8 86 1016.9 6.0 S 10.7 0.0 2.0
23:14 15.1 12.8 86 1017.1 6.0 S 10.7 0.0 2.0
23:15 15.1 12.8 86 1017.1 7.6 E 10.7 0.0 2.0
23:16 15.1 12.8 86 1017.0 8.3 S 10.7 0.0 2.0
23:17 15.1 12.8 86 1017.0 7.6 SE 10.7 0.0 2.0
23:18 15.1 12.8 86 1017.0 8.3 S 10.7 0.0 2.0
23:19 15.1 12.8 86 1017.0 9.2 SE 10.7 0.0 2.0
23:20 15.1 12.8 86 1017.0 8.3 SSW 10.7 0.0 2.0
23:22 15.1 12.8 86 1017.1 6.9 SE 9.2 0.0 2.0
23:23 15.1 12.8 86 1017.0 6.0 S 9.2 0.0 2.0
23:24 15.1 12.8 86 1017.0 5.4 S 9.2 0.0 2.0
23:25 15.1 12.8 86 1017.0 9.2 S 9.2 0.0 2.0
23:26 15.1 12.8 86 1017.0 7.6 SSE 9.2 0.0 2.0
23:27 15.1 12.8 86 1017.0 6.9 S 9.2 0.0 2.0
23:28 15.1 12.8 86 1016.8 6.9 S 9.2 0.0 2.0
23:29 15.1 12.8 86 1016.8 6.0 S 9.2 0.0 2.0
23:30 15.1 12.8 86 1016.8 6.9 SE 9.2 0.0 2.0
23:31 15.1 12.8 86 1016.9 8.3 S 9.2 0.0 2.0
23:32 15.1 12.8 86 1016.9 6.0 S 9.2 0.0 2.0
23:33 15.1 12.8 86 1016.9 7.6 SE 9.2 0.0 2.0
23:34 15.1 12.8 86 1016.9 9.8 S 9.8 0.0 2.0
23:35 15.1 12.8 86 1016.8 10.7 S 10.7 0.0 2.0
23:36 15.1 12.8 86 1016.9 7.6 SE 10.7 0.0 2.0
23:37 15.1 12.8 86 1016.8 7.6 S 10.7 0.0 2.0
23:38 15.1 12.8 86 1016.7 6.0 SE 10.7 0.0 2.0
23:39 15.1 12.8 86 1016.8 9.2 S 10.7 0.0 2.0
23:40 15.2 12.9 86 1016.7 11.4 SE 11.4 0.0 2.0
23:41 15.2 12.9 86 1016.9 9.2 SW 11.4 0.0 2.0
23:42 15.1 12.8 86 1016.6 11.4 S 11.4 0.0 2.0
23:43 15.2 12.9 86 1017.0 9.8 SE 11.4 0.0 2.0
23:44 15.2 12.9 86 1016.8 12.1 S 12.1 0.0 2.0
23:45 15.2 12.9 86 1016.8 13.0 SE 13.0 0.0 2.0
23:46 15.2 12.9 86 1016.7 12.1 S 13.0 0.0 2.0
23:47 15.2 12.9 86 1016.9 14.5 S 14.5 0.0 2.0
23:48 15.2 12.9 86 1016.8 13.6 SE 14.5 0.0 2.0
23:49 15.2 12.9 86 1016.8 17.4 S 17.4 0.0 2.0
23:50 15.2 12.9 86 1016.8 13.6 S 17.4 0.0 2.0
23:51 15.1 12.8 86 1016.6 13.6 S 17.4 0.0 2.0
23:52 15.1 12.8 86 1016.8 12.1 SE 17.4 0.0 2.0
23:53 15.1 12.8 86 1016.7 12.1 S 17.4 0.0 2.0
23:54 15.1 12.8 86 1016.7 13.6 S 17.4 0.0 2.0
23:55 15.1 12.8 86 1016.6 13.0 SE 17.4 0.0 2.0
23:56 15.0 12.7 86 1016.6 8.3 SW 17.4 0.0 2.0
23:57 15.0 12.7 86 1016.7 9.2 S 17.4 0.0 2.0
23:58 15.0 12.7 86 1016.8 9.8 S 17.4 0.0 2.0
23:59 15.0 12.7 86 1016.6 7.6 SE 17.4 0.0 2.0

 

 

UK - WEATHER STATION TOPSITES - UK World Weather Websites

Copyright © Carnkie Weather 2009 - 2019.